SWR283 FAOR-LSZH
Flight info
| Callsign | SWR283 |
|---|---|
| Flight time | 10h 9m |
| Altitude | 36000 |
| Route | VASUR3B VASUR UZ21 ITROL UQ25 RUDAS UT941 IBRIT UM998 AXUGO/N0468F380 UM998 DELIS/N0464F400 UM998 CSO UM2 CIRTA DCT BUKID DCT NEGAT DCT OMEDA DCT RAPUR DCT TORTU DCT ERTEV DCT CANNE Z651 KELIP |
| Aircraft | A343/H-SDE2E3FGHIJ4J5M1P2RWXY/LB1D1 |
Departure
| Time | 2026-04-26 07:51 |
|---|---|
| Airport | O.R. Tambo International Airport (FAOR) |
Arrival
| Time | 2026-04-26 18:01 |
|---|---|
| Airport | Zürich Airport (LSZH) |
| Time | Latitude | Longitude | Altitude | Speed | Heading |
|---|---|---|---|---|---|
| 2026-04-26 06:22 | -26.13027 | 28.23474 | 5525 ft | 0 kts | 7° |
| 2026-04-26 07:30 | -26.13038 | 28.23472 | 5526 ft | 3 kts | 7° |
| 2026-04-26 07:30 | -26.13057 | 28.23470 | 5532 ft | 3 kts | 7° |
| 2026-04-26 07:30 | -26.13075 | 28.23468 | 5532 ft | 3 kts | 19° |
| 2026-04-26 07:30 | -26.13092 | 28.23458 | 5535 ft | 3 kts | 33° |
| 2026-04-26 07:31 | -26.13108 | 28.23446 | 5531 ft | 3 kts | 59° |
| 2026-04-26 07:31 | -26.13114 | 28.23427 | 5533 ft | 0 kts | 86° |
| 2026-04-26 07:35 | -26.13114 | 28.23428 | 5534 ft | 1 kts | 86° |
| 2026-04-26 07:36 | -26.13113 | 28.23443 | 5532 ft | 2 kts | 86° |
| 2026-04-26 07:36 | -26.13113 | 28.23455 | 5532 ft | 1 kts | 90° |
| 2026-04-26 07:36 | -26.13114 | 28.23473 | 5533 ft | 3 kts | 94° |
| 2026-04-26 07:36 | -26.13117 | 28.23506 | 5527 ft | 4 kts | 96° |
| 2026-04-26 07:37 | -26.13120 | 28.23538 | 5527 ft | 4 kts | 95° |
| 2026-04-26 07:37 | -26.13122 | 28.23566 | 5527 ft | 3 kts | 94° |
| 2026-04-26 07:37 | -26.13125 | 28.23594 | 5527 ft | 4 kts | 96° |
| 2026-04-26 07:37 | -26.13128 | 28.23624 | 5527 ft | 5 kts | 97° |
| 2026-04-26 07:38 | -26.13131 | 28.23661 | 5526 ft | 4 kts | 91° |
| 2026-04-26 07:38 | -26.13125 | 28.23691 | 5526 ft | 3 kts | 70° |
| 2026-04-26 07:38 | -26.13112 | 28.23708 | 5526 ft | 2 kts | 44° |
| 2026-04-26 07:38 | -26.13104 | 28.23710 | 5526 ft | 2 kts | 20° |
| 2026-04-26 07:39 | -26.13071 | 28.23721 | 5526 ft | 7 kts | 15° |
| 2026-04-26 07:39 | -26.13023 | 28.23736 | 5525 ft | 7 kts | 15° |
| 2026-04-26 07:39 | -26.12973 | 28.23750 | 5524 ft | 8 kts | 15° |
| 2026-04-26 07:39 | -26.12921 | 28.23766 | 5525 ft | 8 kts | 15° |
| 2026-04-26 07:40 | -26.12870 | 28.23782 | 5523 ft | 8 kts | 15° |
| 2026-04-26 07:40 | -26.12818 | 28.23798 | 5522 ft | 8 kts | 15° |
| 2026-04-26 07:40 | -26.12768 | 28.23813 | 5522 ft | 7 kts | 15° |
| 2026-04-26 07:40 | -26.12721 | 28.23827 | 5522 ft | 7 kts | 14° |
| 2026-04-26 07:41 | -26.12674 | 28.23840 | 5521 ft | 7 kts | 14° |
| 2026-04-26 07:41 | -26.12625 | 28.23854 | 5520 ft | 8 kts | 14° |
| 2026-04-26 07:41 | -26.12568 | 28.23871 | 5519 ft | 9 kts | 15° |
| 2026-04-26 07:41 | -26.12508 | 28.23890 | 5518 ft | 9 kts | 15° |
| 2026-04-26 07:42 | -26.12448 | 28.23909 | 5518 ft | 9 kts | 15° |
| 2026-04-26 07:42 | -26.12387 | 28.23928 | 5517 ft | 9 kts | 15° |
| 2026-04-26 07:42 | -26.12326 | 28.23947 | 5516 ft | 9 kts | 16° |
| 2026-04-26 07:42 | -26.12265 | 28.23967 | 5515 ft | 9 kts | 16° |
| 2026-04-26 07:43 | -26.12202 | 28.23987 | 5514 ft | 9 kts | 16° |
| 2026-04-26 07:43 | -26.12130 | 28.24010 | 5513 ft | 11 kts | 15° |
| 2026-04-26 07:43 | -26.12055 | 28.24033 | 5512 ft | 11 kts | 15° |
| 2026-04-26 07:43 | -26.11982 | 28.24055 | 5511 ft | 11 kts | 14° |
| 2026-04-26 07:44 | -26.11914 | 28.24077 | 5509 ft | 10 kts | 16° |
| 2026-04-26 07:44 | -26.11844 | 28.24099 | 5508 ft | 11 kts | 16° |
| 2026-04-26 07:44 | -26.11773 | 28.24121 | 5507 ft | 10 kts | 15° |
| 2026-04-26 07:44 | -26.11705 | 28.24143 | 5506 ft | 10 kts | 15° |
| 2026-04-26 07:45 | -26.11639 | 28.24164 | 5505 ft | 10 kts | 15° |
| 2026-04-26 07:45 | -26.11573 | 28.24183 | 5504 ft | 10 kts | 15° |
| 2026-04-26 07:45 | -26.11507 | 28.24203 | 5503 ft | 10 kts | 15° |
| 2026-04-26 07:45 | -26.11444 | 28.24222 | 5503 ft | 8 kts | 16° |
| 2026-04-26 07:46 | -26.11394 | 28.24238 | 5502 ft | 8 kts | 16° |
| 2026-04-26 07:46 | -26.11342 | 28.24255 | 5501 ft | 8 kts | 16° |
| 2026-04-26 07:46 | -26.11289 | 28.24272 | 5501 ft | 8 kts | 16° |
| 2026-04-26 07:46 | -26.11233 | 28.24289 | 5500 ft | 9 kts | 16° |
| 2026-04-26 07:47 | -26.11172 | 28.24309 | 5498 ft | 9 kts | 15° |
| 2026-04-26 07:47 | -26.11108 | 28.24327 | 5497 ft | 10 kts | 14° |
| 2026-04-26 07:47 | -26.11044 | 28.24346 | 5496 ft | 10 kts | 15° |
| 2026-04-26 07:47 | -26.10981 | 28.24365 | 5495 ft | 9 kts | 15° |
| 2026-04-26 07:48 | -26.10925 | 28.24397 | 5494 ft | 8 kts | 42° |
| 2026-04-26 07:48 | -26.10895 | 28.24449 | 5493 ft | 8 kts | 60° |
| 2026-04-26 07:48 | -26.10866 | 28.24507 | 5492 ft | 9 kts | 62° |
| 2026-04-26 07:48 | -26.10849 | 28.24569 | 5490 ft | 7 kts | 92° |
| 2026-04-26 07:49 | -26.10865 | 28.24596 | 5491 ft | 4 kts | 135° |
| 2026-04-26 07:49 | -26.10888 | 28.24600 | 5491 ft | 1 kts | 192° |
| 2026-04-26 07:49 | -26.10932 | 28.24585 | 5492 ft | 10 kts | 195° |
| 2026-04-26 07:50 | -26.11065 | 28.24544 | 5496 ft | 0 kts | 196° |
| 2026-04-26 07:50 | -26.11066 | 28.24544 | 5496 ft | 1 kts | 196° |
| 2026-04-26 07:50 | -26.11272 | 28.24479 | 5500 ft | 66 kts | 195° |
| 2026-04-26 07:51 | -26.11932 | 28.24275 | 5509 ft | 128 kts | 195° |
| 2026-04-26 07:51 | -26.12945 | 28.23961 | 5527 ft | 170 kts | 195° |
| 2026-04-26 07:51 | -26.14137 | 28.23593 | 5782 ft | 180 kts | 195° |
| 2026-04-26 07:51 | -26.15388 | 28.23289 | 6209 ft | 188 kts | 188° |
| 2026-04-26 07:52 | -26.16713 | 28.23111 | 6569 ft | 194 kts | 190° |
| 2026-04-26 07:52 | -26.17989 | 28.22806 | 6995 ft | 183 kts | 195° |
| 2026-04-26 07:52 | -26.19248 | 28.22514 | 7372 ft | 187 kts | 190° |
| 2026-04-26 07:52 | -26.20545 | 28.22303 | 7747 ft | 190 kts | 189° |
| 2026-04-26 07:53 | -26.21841 | 28.22019 | 8103 ft | 191 kts | 202° |
| 2026-04-26 07:53 | -26.22796 | 28.21073 | 8400 ft | 185 kts | 252° |
| 2026-04-26 07:53 | -26.22698 | 28.19718 | 8669 ft | 178 kts | 307° |
| 2026-04-26 07:53 | -26.21719 | 28.19049 | 8940 ft | 170 kts | 344° |
| 2026-04-26 07:54 | -26.20493 | 28.18691 | 8984 ft | 188 kts | 342° |
| 2026-04-26 07:54 | -26.19202 | 28.18228 | 9255 ft | 203 kts | 341° |
| 2026-04-26 07:54 | -26.17803 | 28.17779 | 9527 ft | 213 kts | 344° |
| 2026-04-26 07:54 | -26.16372 | 28.17378 | 9795 ft | 217 kts | 343° |
| 2026-04-26 07:55 | -26.14924 | 28.16870 | 10065 ft | 220 kts | 339° |
| 2026-04-26 07:55 | -26.13428 | 28.16286 | 10133 ft | 238 kts | 340° |
| 2026-04-26 07:55 | -26.11853 | 28.15687 | 10559 ft | 235 kts | 340° |
| 2026-04-26 07:55 | -26.10257 | 28.15081 | 10598 ft | 256 kts | 340° |
| 2026-04-26 07:56 | -26.08516 | 28.14416 | 10750 ft | 272 kts | 340° |
| 2026-04-26 07:56 | -26.06661 | 28.13676 | 10801 ft | 295 kts | 336° |
| 2026-04-26 07:56 | -26.04785 | 28.12689 | 10941 ft | 303 kts | 332° |
| 2026-04-26 07:56 | -26.02835 | 28.11622 | 11126 ft | 321 kts | 334° |
| 2026-04-26 07:57 | -26.00714 | 28.10658 | 11384 ft | 338 kts | 338° |
| 2026-04-26 07:57 | -25.98478 | 28.09658 | 11644 ft | 351 kts | 335° |
| 2026-04-26 07:57 | -25.96235 | 28.08517 | 11895 ft | 357 kts | 334° |
| 2026-04-26 07:57 | -25.94733 | 28.07746 | 12076 ft | 360 kts | 335° |
| 2026-04-26 07:58 | -25.91649 | 28.06311 | 12644 ft | 368 kts | 336° |
| 2026-04-26 07:58 | -25.90040 | 28.05565 | 12951 ft | 374 kts | 335° |
| 2026-04-26 07:58 | -25.86834 | 28.03974 | 13563 ft | 386 kts | 334° |
| 2026-04-26 07:58 | -25.85198 | 28.03169 | 13921 ft | 391 kts | 335° |
| 2026-04-26 07:59 | -25.82669 | 28.01982 | 14400 ft | 396 kts | 336° |
| 2026-04-26 07:59 | -25.80125 | 28.00781 | 14860 ft | 398 kts | 335° |
| 2026-04-26 07:59 | -25.77577 | 27.99529 | 15329 ft | 402 kts | 334° |
| 2026-04-26 07:59 | -25.75002 | 27.98281 | 15812 ft | 404 kts | 335° |
| 2026-04-26 08:00 | -25.72404 | 27.97056 | 16209 ft | 407 kts | 335° |
| 2026-04-26 08:00 | -25.69793 | 27.95807 | 16708 ft | 410 kts | 334° |
| 2026-04-26 08:00 | -25.67174 | 27.94532 | 17203 ft | 413 kts | 334° |
| 2026-04-26 08:00 | -25.64525 | 27.93265 | 17708 ft | 416 kts | 334° |
| 2026-04-26 08:01 | -25.61855 | 27.91999 | 18231 ft | 419 kts | 334° |
| 2026-04-26 08:01 | -25.59173 | 27.90708 | 18728 ft | 421 kts | 333° |
| 2026-04-26 08:01 | -25.56468 | 27.89402 | 19187 ft | 425 kts | 333° |
| 2026-04-26 08:01 | -25.53912 | 27.87771 | 19585 ft | 424 kts | 321° |
| 2026-04-26 08:02 | -25.51660 | 27.85657 | 20051 ft | 424 kts | 314° |
| 2026-04-26 08:02 | -25.49504 | 27.83403 | 20507 ft | 427 kts | 314° |
| 2026-04-26 08:02 | -25.47254 | 27.81269 | 20980 ft | 433 kts | 319° |
| 2026-04-26 08:02 | -25.44802 | 27.79300 | 21471 ft | 438 kts | 322° |
| 2026-04-26 08:03 | -25.42346 | 27.77292 | 21971 ft | 441 kts | 319° |
| 2026-04-26 08:03 | -25.39988 | 27.75113 | 22488 ft | 443 kts | 316° |
| 2026-04-26 08:03 | -25.37597 | 27.72928 | 23015 ft | 448 kts | 319° |
| 2026-04-26 08:03 | -25.35083 | 27.70838 | 23556 ft | 453 kts | 320° |
| 2026-04-26 08:04 | -25.32558 | 27.68719 | 24027 ft | 457 kts | 318° |
| 2026-04-26 08:04 | -25.30092 | 27.66493 | 24468 ft | 459 kts | 317° |
| 2026-04-26 08:04 | -25.27626 | 27.64288 | 24908 ft | 463 kts | 318° |
| 2026-04-26 08:04 | -25.25051 | 27.62116 | 25362 ft | 467 kts | 319° |
| 2026-04-26 08:05 | -25.22470 | 27.59923 | 25839 ft | 469 kts | 317° |
| 2026-04-26 08:05 | -25.19923 | 27.57656 | 26287 ft | 471 kts | 316° |
| 2026-04-26 08:05 | -25.17347 | 27.55384 | 26775 ft | 475 kts | 317° |
| 2026-04-26 08:05 | -25.14717 | 27.53153 | 27255 ft | 477 kts | 317° |
| 2026-04-26 08:06 | -25.12088 | 27.50901 | 27751 ft | 479 kts | 316° |
| 2026-04-26 08:06 | -25.09482 | 27.48603 | 28253 ft | 481 kts | 316° |
| 2026-04-26 08:06 | -25.06843 | 27.46301 | 28769 ft | 483 kts | 316° |
| 2026-04-26 08:06 | -25.04211 | 27.44059 | 29274 ft | 485 kts | 316° |
| 2026-04-26 08:07 | -25.01665 | 27.41642 | 29750 ft | 482 kts | 311° |
| 2026-04-26 08:07 | -24.99189 | 27.39122 | 30178 ft | 486 kts | 312° |
| 2026-04-26 08:07 | -24.96649 | 27.36644 | 30549 ft | 490 kts | 313° |
| 2026-04-26 08:07 | -24.94066 | 27.34178 | 30894 ft | 492 kts | 313° |
| 2026-04-26 08:08 | -24.91511 | 27.31647 | 31242 ft | 493 kts | 311° |
| 2026-04-26 08:08 | -24.88975 | 27.29091 | 31595 ft | 495 kts | 312° |
| 2026-04-26 08:08 | -24.86387 | 27.26565 | 31958 ft | 498 kts | 313° |
| 2026-04-26 08:08 | -24.83779 | 27.24055 | 32302 ft | 498 kts | 313° |
| 2026-04-26 08:09 | -24.81229 | 27.21537 | 32631 ft | 497 kts | 312° |
| 2026-04-26 08:09 | -24.78662 | 27.18977 | 32997 ft | 497 kts | 312° |
| 2026-04-26 08:09 | -24.76074 | 27.16456 | 33361 ft | 496 kts | 313° |
| 2026-04-26 08:09 | -24.73493 | 27.13963 | 33709 ft | 489 kts | 313° |
| 2026-04-26 08:10 | -24.70967 | 27.11474 | 34090 ft | 486 kts | 312° |
| 2026-04-26 08:10 | -24.68452 | 27.08979 | 34459 ft | 487 kts | 312° |
| 2026-04-26 08:10 | -24.65907 | 27.06507 | 34788 ft | 487 kts | 313° |
| 2026-04-26 08:10 | -24.63365 | 27.04047 | 35127 ft | 487 kts | 313° |
| 2026-04-26 08:11 | -24.60839 | 27.01561 | 35348 ft | 489 kts | 313° |
| 2026-04-26 08:11 | -24.58338 | 26.99098 | 35585 ft | 489 kts | 313° |
| 2026-04-26 08:11 | -24.55782 | 26.96624 | 35814 ft | 488 kts | 314° |
| 2026-04-26 08:11 | -24.53236 | 26.94158 | 36054 ft | 483 kts | 313° |
| 2026-04-26 08:12 | -24.50742 | 26.91706 | 36275 ft | 481 kts | 313° |
| 2026-04-26 08:12 | -24.48227 | 26.89240 | 36246 ft | 484 kts | 313° |
| 2026-04-26 08:12 | -24.43200 | 26.84380 | 36255 ft | 479 kts | 313° |
| 2026-04-26 08:13 | -24.38269 | 26.79556 | 36260 ft | 478 kts | 313° |
| 2026-04-26 08:13 | -24.33280 | 26.74731 | 36249 ft | 478 kts | 313° |
| 2026-04-26 08:14 | -24.27977 | 26.70206 | 36264 ft | 485 kts | 319° |
| 2026-04-26 08:14 | -24.22559 | 26.65804 | 36265 ft | 484 kts | 317° |
| 2026-04-26 08:15 | -24.17116 | 26.61415 | 36252 ft | 486 kts | 319° |
| 2026-04-26 08:15 | -24.11706 | 26.57032 | 36250 ft | 484 kts | 317° |
| 2026-04-26 08:16 | -24.06271 | 26.52664 | 36269 ft | 484 kts | 319° |
| 2026-04-26 08:16 | -24.00879 | 26.48300 | 36226 ft | 484 kts | 318° |
| 2026-04-26 08:17 | -23.95441 | 26.43941 | 36236 ft | 484 kts | 319° |
| 2026-04-26 08:17 | -23.90021 | 26.39561 | 36270 ft | 483 kts | 318° |
| 2026-04-26 08:18 | -23.84579 | 26.35214 | 36216 ft | 485 kts | 319° |
| 2026-04-26 08:18 | -23.79139 | 26.30843 | 36221 ft | 485 kts | 319° |
| 2026-04-26 08:19 | -23.73678 | 26.26510 | 36261 ft | 485 kts | 319° |
| 2026-04-26 08:19 | -23.68080 | 26.22445 | 36257 ft | 487 kts | 323° |
| 2026-04-26 08:20 | -23.62380 | 26.18447 | 36214 ft | 487 kts | 322° |
| 2026-04-26 08:20 | -23.56647 | 26.14490 | 36244 ft | 487 kts | 323° |
| 2026-04-26 08:21 | -23.51194 | 26.10162 | 36248 ft | 483 kts | 317° |
| 2026-04-26 08:21 | -23.45813 | 26.05794 | 36240 ft | 485 kts | 319° |
| 2026-04-26 08:22 | -23.40456 | 26.01340 | 36235 ft | 484 kts | 317° |
| 2026-04-26 08:22 | -23.35050 | 25.96941 | 36235 ft | 485 kts | 319° |
| 2026-04-26 08:23 | -23.29687 | 25.92500 | 36224 ft | 484 kts | 317° |
| 2026-04-26 08:23 | -23.24314 | 25.88134 | 36231 ft | 484 kts | 319° |
| 2026-04-26 08:24 | -23.18950 | 25.83703 | 36226 ft | 484 kts | 318° |
| 2026-04-26 08:24 | -23.13551 | 25.79323 | 36228 ft | 484 kts | 319° |
| 2026-04-26 08:25 | -23.08190 | 25.74904 | 36226 ft | 484 kts | 318° |
| 2026-04-26 08:25 | -23.02815 | 25.70552 | 36225 ft | 484 kts | 318° |
| 2026-04-26 08:26 | -22.97447 | 25.66138 | 36222 ft | 484 kts | 318° |
| 2026-04-26 08:26 | -22.91994 | 25.61825 | 36230 ft | 484 kts | 320° |
| 2026-04-26 08:27 | -22.86555 | 25.57522 | 36226 ft | 483 kts | 319° |
| 2026-04-26 08:27 | -22.81084 | 25.53320 | 36212 ft | 485 kts | 320° |
| 2026-04-26 08:28 | -22.75625 | 25.49035 | 36217 ft | 485 kts | 319° |
| 2026-04-26 08:28 | -22.70110 | 25.44800 | 36217 ft | 486 kts | 320° |
| 2026-04-26 08:29 | -22.64623 | 25.40505 | 36217 ft | 486 kts | 319° |
| 2026-04-26 08:29 | -22.59129 | 25.36293 | 36218 ft | 486 kts | 320° |
| 2026-04-26 08:30 | -22.53571 | 25.31951 | 36217 ft | 496 kts | 320° |
| 2026-04-26 08:30 | -22.47943 | 25.27647 | 36222 ft | 495 kts | 320° |
| 2026-04-26 08:31 | -22.42344 | 25.23285 | 36220 ft | 495 kts | 320° |
| 2026-04-26 08:31 | -22.36711 | 25.18979 | 36216 ft | 495 kts | 320° |
| 2026-04-26 08:32 | -22.31109 | 25.14631 | 36201 ft | 496 kts | 320° |
| 2026-04-26 08:32 | -22.25506 | 25.10347 | 36200 ft | 497 kts | 320° |
| 2026-04-26 08:33 | -22.19883 | 25.06002 | 36203 ft | 497 kts | 320° |
| 2026-04-26 08:33 | -22.14233 | 25.01680 | 36205 ft | 497 kts | 320° |
| 2026-04-26 08:34 | -22.08611 | 24.97357 | 36203 ft | 495 kts | 320° |
| 2026-04-26 08:34 | -22.03031 | 24.93083 | 36197 ft | 496 kts | 320° |
| 2026-04-26 08:35 | -21.97402 | 24.88774 | 36211 ft | 496 kts | 320° |
| 2026-04-26 08:35 | -21.91768 | 24.84458 | 36213 ft | 496 kts | 320° |
| 2026-04-26 08:36 | -21.86143 | 24.80157 | 36211 ft | 496 kts | 320° |
| 2026-04-26 08:36 | -21.80555 | 24.75856 | 36205 ft | 496 kts | 320° |
| 2026-04-26 08:37 | -21.74913 | 24.71549 | 36199 ft | 497 kts | 320° |
| 2026-04-26 08:37 | -21.69271 | 24.67223 | 36202 ft | 497 kts | 321° |
| 2026-04-26 08:38 | -21.63651 | 24.62932 | 36205 ft | 497 kts | 320° |
| 2026-04-26 08:38 | -21.57997 | 24.58614 | 36202 ft | 497 kts | 321° |
| 2026-04-26 08:39 | -21.52352 | 24.54303 | 36191 ft | 497 kts | 320° |
| 2026-04-26 08:39 | -21.46695 | 24.50001 | 36193 ft | 498 kts | 321° |
| 2026-04-26 08:40 | -21.41077 | 24.45710 | 36198 ft | 498 kts | 321° |
| 2026-04-26 08:40 | -21.35413 | 24.41418 | 36197 ft | 498 kts | 321° |
| 2026-04-26 08:41 | -21.29768 | 24.37111 | 36187 ft | 497 kts | 321° |
| 2026-04-26 08:41 | -21.24108 | 24.32831 | 36177 ft | 497 kts | 321° |
| 2026-04-26 08:42 | -21.18461 | 24.28534 | 36180 ft | 498 kts | 321° |
| 2026-04-26 08:42 | -21.12793 | 24.24248 | 36182 ft | 498 kts | 321° |
| 2026-04-26 08:43 | -21.07129 | 24.19957 | 36181 ft | 498 kts | 321° |
| 2026-04-26 08:43 | -21.01499 | 24.15697 | 36175 ft | 498 kts | 321° |
| 2026-04-26 08:44 | -20.95822 | 24.11413 | 36172 ft | 500 kts | 321° |
| 2026-04-26 08:44 | -20.90137 | 24.07112 | 36189 ft | 500 kts | 321° |
| 2026-04-26 08:45 | -20.84453 | 24.02840 | 36185 ft | 499 kts | 321° |
| 2026-04-26 08:45 | -20.78819 | 23.98578 | 36178 ft | 499 kts | 321° |
| 2026-04-26 08:46 | -20.73133 | 23.94314 | 36176 ft | 499 kts | 321° |
| 2026-04-26 08:46 | -20.68384 | 23.90725 | 36171 ft | 500 kts | 321° |
| 2026-04-26 08:47 | -20.62713 | 23.86481 | 36164 ft | 501 kts | 321° |
| 2026-04-26 08:47 | -20.57008 | 23.82184 | 36163 ft | 501 kts | 322° |
| 2026-04-26 08:48 | -20.51300 | 23.77914 | 36172 ft | 500 kts | 321° |
| 2026-04-26 08:48 | -20.45642 | 23.73665 | 36176 ft | 500 kts | 322° |
| 2026-04-26 08:49 | -20.39947 | 23.69403 | 36173 ft | 499 kts | 321° |
| 2026-04-26 08:49 | -20.34253 | 23.65146 | 36166 ft | 500 kts | 322° |
| 2026-04-26 08:50 | -20.28562 | 23.60884 | 36168 ft | 499 kts | 321° |
| 2026-04-26 08:50 | -20.22866 | 23.56643 | 36171 ft | 499 kts | 322° |
| 2026-04-26 08:51 | -20.14370 | 23.50296 | 36167 ft | 500 kts | 322° |
| 2026-04-26 08:52 | -20.08660 | 23.46043 | 36164 ft | 501 kts | 322° |
| 2026-04-26 08:52 | -20.02944 | 23.41792 | 36230 ft | 500 kts | 322° |
| 2026-04-26 08:53 | -19.96999 | 23.37919 | 36176 ft | 506 kts | 335° |
| 2026-04-26 08:53 | -19.90473 | 23.35092 | 36247 ft | 505 kts | 333° |
| 2026-04-26 08:54 | -19.84061 | 23.32126 | 36203 ft | 507 kts | 335° |
| 2026-04-26 08:54 | -19.77522 | 23.29290 | 36193 ft | 506 kts | 333° |
| 2026-04-26 08:55 | -19.71046 | 23.26318 | 36168 ft | 507 kts | 335° |
| 2026-04-26 08:55 | -19.64518 | 23.23469 | 36147 ft | 506 kts | 334° |
| 2026-04-26 08:56 | -19.58077 | 23.20540 | 36144 ft | 507 kts | 335° |
| 2026-04-26 08:56 | -19.51552 | 23.17679 | 36149 ft | 507 kts | 334° |
| 2026-04-26 08:57 | -19.45061 | 23.14749 | 36153 ft | 507 kts | 335° |
| 2026-04-26 08:57 | -19.38534 | 23.11877 | 36148 ft | 507 kts | 334° |
| 2026-04-26 08:58 | -19.32038 | 23.08964 | 36151 ft | 506 kts | 335° |
| 2026-04-26 08:58 | -19.25569 | 23.06109 | 36142 ft | 506 kts | 334° |
| 2026-04-26 08:59 | -19.19078 | 23.03215 | 36139 ft | 506 kts | 335° |
| 2026-04-26 08:59 | -19.12583 | 23.00343 | 36137 ft | 506 kts | 334° |
| 2026-04-26 09:00 | -19.06079 | 22.97459 | 36137 ft | 506 kts | 335° |
| 2026-04-26 09:00 | -18.99566 | 22.94618 | 36141 ft | 506 kts | 335° |
| 2026-04-26 09:01 | -18.93030 | 22.91829 | 36135 ft | 506 kts | 335° |
| 2026-04-26 09:01 | -18.86514 | 22.89001 | 36139 ft | 506 kts | 336° |
| 2026-04-26 09:02 | -18.80018 | 22.86223 | 36139 ft | 506 kts | 335° |
| 2026-04-26 09:02 | -18.73493 | 22.83406 | 36140 ft | 506 kts | 336° |
| 2026-04-26 09:03 | -18.66965 | 22.80607 | 36133 ft | 506 kts | 335° |
| 2026-04-26 09:03 | -18.60463 | 22.77715 | 36133 ft | 505 kts | 334° |
| 2026-04-26 09:04 | -18.53987 | 22.74824 | 36126 ft | 505 kts | 335° |
| 2026-04-26 09:04 | -18.47509 | 22.71941 | 36127 ft | 505 kts | 335° |
| 2026-04-26 09:05 | -18.41033 | 22.69067 | 36133 ft | 505 kts | 335° |
| 2026-04-26 09:05 | -18.34596 | 22.66199 | 36132 ft | 505 kts | 335° |
| 2026-04-26 09:06 | -18.28101 | 22.63326 | 36129 ft | 506 kts | 335° |
| 2026-04-26 09:06 | -18.21642 | 22.60448 | 36125 ft | 506 kts | 335° |
| 2026-04-26 09:07 | -18.15150 | 22.57587 | 36128 ft | 506 kts | 335° |
| 2026-04-26 09:07 | -18.08660 | 22.54696 | 36125 ft | 506 kts | 335° |
| 2026-04-26 09:08 | -18.02158 | 22.51836 | 36123 ft | 507 kts | 335° |
| 2026-04-26 09:08 | -17.95663 | 22.48947 | 36116 ft | 507 kts | 336° |
| 2026-04-26 09:09 | -17.89271 | 22.45935 | 36114 ft | 507 kts | 334° |
| 2026-04-26 09:09 | -17.82785 | 22.43058 | 36117 ft | 505 kts | 337° |
| 2026-04-26 09:10 | -17.76313 | 22.40167 | 36113 ft | 506 kts | 334° |
| 2026-04-26 09:10 | -17.69746 | 22.37391 | 36113 ft | 509 kts | 338° |
| 2026-04-26 09:11 | -17.63212 | 22.34547 | 36111 ft | 507 kts | 335° |
| 2026-04-26 09:11 | -17.56669 | 22.31745 | 36110 ft | 508 kts | 337° |
| 2026-04-26 09:12 | -17.50168 | 22.28950 | 36109 ft | 508 kts | 335° |
| 2026-04-26 09:12 | -17.43618 | 22.26125 | 36114 ft | 508 kts | 337° |
| 2026-04-26 09:13 | -17.37099 | 22.23348 | 36105 ft | 509 kts | 335° |
| 2026-04-26 09:13 | -17.30557 | 22.20513 | 36104 ft | 508 kts | 337° |
| 2026-04-26 09:14 | -17.23993 | 22.17731 | 36106 ft | 508 kts | 336° |
| 2026-04-26 09:14 | -17.17458 | 22.14901 | 36105 ft | 509 kts | 336° |
| 2026-04-26 09:15 | -17.10897 | 22.12121 | 36110 ft | 507 kts | 336° |
| 2026-04-26 09:15 | -17.04398 | 22.09317 | 36108 ft | 507 kts | 337° |
| 2026-04-26 09:16 | -16.97858 | 22.06547 | 36104 ft | 507 kts | 336° |
| 2026-04-26 09:16 | -16.91331 | 22.03736 | 36105 ft | 506 kts | 337° |
| 2026-04-26 09:17 | -16.84776 | 22.00962 | 36100 ft | 508 kts | 337° |
| 2026-04-26 09:17 | -16.78237 | 21.98155 | 36095 ft | 507 kts | 337° |
| 2026-04-26 09:18 | -16.71718 | 21.95392 | 36093 ft | 507 kts | 337° |
| 2026-04-26 09:18 | -16.65186 | 21.92602 | 36094 ft | 508 kts | 337° |
| 2026-04-26 09:19 | -16.58645 | 21.89826 | 36094 ft | 508 kts | 337° |
| 2026-04-26 09:19 | -16.52094 | 21.87034 | 36090 ft | 510 kts | 338° |
| 2026-04-26 09:20 | -16.45517 | 21.84250 | 36093 ft | 511 kts | 338° |
| 2026-04-26 09:20 | -16.38928 | 21.81444 | 36094 ft | 509 kts | 338° |
| 2026-04-26 09:21 | -16.32398 | 21.78682 | 36097 ft | 507 kts | 338° |
| 2026-04-26 09:21 | -16.25867 | 21.75906 | 36091 ft | 507 kts | 338° |
| 2026-04-26 09:22 | -16.19312 | 21.73137 | 36093 ft | 509 kts | 338° |
| 2026-04-26 09:22 | -16.12738 | 21.70349 | 36087 ft | 512 kts | 338° |
| 2026-04-26 09:23 | -16.06155 | 21.67569 | 36080 ft | 511 kts | 338° |
| 2026-04-26 09:23 | -15.99564 | 21.64781 | 36086 ft | 511 kts | 338° |
| 2026-04-26 09:24 | -15.92985 | 21.62005 | 36085 ft | 512 kts | 338° |
| 2026-04-26 09:24 | -15.86435 | 21.59238 | 36082 ft | 511 kts | 338° |
| 2026-04-26 09:25 | -15.79829 | 21.56455 | 36087 ft | 512 kts | 338° |
| 2026-04-26 09:25 | -15.73239 | 21.53675 | 36082 ft | 512 kts | 338° |
| 2026-04-26 09:26 | -15.66631 | 21.50895 | 36081 ft | 510 kts | 338° |
| 2026-04-26 09:26 | -15.60043 | 21.48120 | 36086 ft | 511 kts | 338° |
| 2026-04-26 09:27 | -15.53435 | 21.45343 | 36080 ft | 512 kts | 338° |
| 2026-04-26 09:27 | -15.46835 | 21.42569 | 36080 ft | 511 kts | 338° |
| 2026-04-26 09:28 | -15.40272 | 21.39813 | 36088 ft | 512 kts | 339° |
| 2026-04-26 09:28 | -15.33664 | 21.37039 | 36085 ft | 512 kts | 339° |
| 2026-04-26 09:29 | -15.27049 | 21.34266 | 36085 ft | 513 kts | 339° |
| 2026-04-26 09:29 | -15.20434 | 21.31491 | 36087 ft | 513 kts | 339° |
| 2026-04-26 09:30 | -15.13817 | 21.28724 | 36081 ft | 513 kts | 339° |
| 2026-04-26 09:30 | -15.07243 | 21.25969 | 36081 ft | 513 kts | 339° |
| 2026-04-26 09:31 | -15.00629 | 21.23205 | 36078 ft | 512 kts | 339° |
| 2026-04-26 09:31 | -14.94010 | 21.20437 | 36075 ft | 513 kts | 339° |
| 2026-04-26 09:32 | -14.87376 | 21.17666 | 36075 ft | 514 kts | 339° |
| 2026-04-26 09:32 | -14.80754 | 21.14902 | 36076 ft | 514 kts | 339° |
| 2026-04-26 09:33 | -14.75239 | 21.12602 | 36080 ft | 513 kts | 339° |
| 2026-04-26 09:33 | -14.67534 | 21.09389 | 36075 ft | 513 kts | 339° |
| 2026-04-26 09:34 | -14.62024 | 21.07095 | 36075 ft | 513 kts | 339° |
| 2026-04-26 09:34 | -14.55387 | 21.04330 | 36080 ft | 514 kts | 339° |
| 2026-04-26 09:35 | -14.48749 | 21.01569 | 36068 ft | 514 kts | 339° |
| 2026-04-26 09:35 | -14.42116 | 20.98811 | 36070 ft | 514 kts | 339° |
| 2026-04-26 09:36 | -14.35483 | 20.96052 | 36065 ft | 514 kts | 339° |
| 2026-04-26 09:36 | -14.28898 | 20.93320 | 36067 ft | 513 kts | 339° |
| 2026-04-26 09:37 | -14.22266 | 20.90566 | 36073 ft | 514 kts | 339° |
| 2026-04-26 09:37 | -14.15595 | 20.87800 | 36073 ft | 514 kts | 339° |
| 2026-04-26 09:38 | -14.08998 | 20.85066 | 36078 ft | 513 kts | 339° |
| 2026-04-26 09:38 | -14.02356 | 20.82314 | 36077 ft | 514 kts | 339° |
| 2026-04-26 09:39 | -13.95726 | 20.79568 | 36068 ft | 513 kts | 339° |
| 2026-04-26 09:39 | -13.89085 | 20.76823 | 36066 ft | 513 kts | 339° |
| 2026-04-26 09:40 | -13.82495 | 20.74095 | 36069 ft | 514 kts | 339° |
| 2026-04-26 09:40 | -13.75857 | 20.71355 | 36071 ft | 513 kts | 339° |
| 2026-04-26 09:41 | -13.69219 | 20.68612 | 36069 ft | 513 kts | 339° |
| 2026-04-26 09:41 | -13.62580 | 20.65873 | 36066 ft | 514 kts | 339° |
| 2026-04-26 09:42 | -13.55974 | 20.63147 | 36059 ft | 514 kts | 339° |
| 2026-04-26 09:42 | -13.49312 | 20.60401 | 36066 ft | 514 kts | 339° |
| 2026-04-26 09:43 | -13.42706 | 20.57682 | 36068 ft | 514 kts | 339° |
| 2026-04-26 09:43 | -13.36062 | 20.54942 | 36065 ft | 514 kts | 339° |
| 2026-04-26 09:44 | -13.29406 | 20.52210 | 36069 ft | 515 kts | 340° |
| 2026-04-26 09:44 | -13.22749 | 20.49463 | 36065 ft | 515 kts | 340° |
| 2026-04-26 09:45 | -13.16085 | 20.46735 | 36060 ft | 514 kts | 339° |
| 2026-04-26 09:45 | -13.09447 | 20.43997 | 36056 ft | 513 kts | 340° |
| 2026-04-26 09:46 | -13.02860 | 20.41304 | 36051 ft | 513 kts | 339° |
| 2026-04-26 09:46 | -12.96211 | 20.38568 | 36057 ft | 515 kts | 340° |
| 2026-04-26 09:47 | -12.89555 | 20.35842 | 36051 ft | 515 kts | 340° |
| 2026-04-26 09:47 | -12.82896 | 20.33115 | 36050 ft | 515 kts | 340° |
| 2026-04-26 09:48 | -12.76261 | 20.30391 | 36047 ft | 515 kts | 340° |
| 2026-04-26 09:48 | -12.69608 | 20.27678 | 36054 ft | 515 kts | 340° |
| 2026-04-26 09:49 | -12.62942 | 20.24939 | 36053 ft | 516 kts | 340° |
| 2026-04-26 09:49 | -12.56271 | 20.22224 | 36049 ft | 516 kts | 340° |
| 2026-04-26 09:50 | -12.49604 | 20.19486 | 36047 ft | 516 kts | 340° |
| 2026-04-26 09:50 | -12.42925 | 20.16772 | 36046 ft | 516 kts | 340° |
| 2026-04-26 09:51 | -12.36260 | 20.14038 | 36042 ft | 516 kts | 340° |
| 2026-04-26 09:51 | -12.29595 | 20.11331 | 36043 ft | 515 kts | 340° |
| 2026-04-26 09:52 | -12.22979 | 20.08624 | 36042 ft | 515 kts | 340° |
| 2026-04-26 09:52 | -12.12985 | 20.04549 | 36044 ft | 515 kts | 340° |
| 2026-04-26 09:53 | -12.06315 | 20.01847 | 36043 ft | 515 kts | 340° |
| 2026-04-26 09:53 | -11.99641 | 19.99115 | 36042 ft | 516 kts | 340° |
| 2026-04-26 09:54 | -11.92996 | 19.96428 | 36042 ft | 516 kts | 340° |
| 2026-04-26 09:54 | -11.86319 | 19.93700 | 36039 ft | 516 kts | 340° |
| 2026-04-26 09:55 | -11.79636 | 19.90995 | 36035 ft | 516 kts | 340° |
| 2026-04-26 09:55 | -11.72859 | 19.88622 | 36049 ft | 514 kts | 347° |
| 2026-04-26 09:56 | -11.65981 | 19.86550 | 36043 ft | 516 kts | 345° |
| 2026-04-26 09:56 | -11.59100 | 19.84460 | 36040 ft | 515 kts | 347° |
| 2026-04-26 09:57 | -11.52260 | 19.82403 | 36135 ft | 516 kts | 345° |
| 2026-04-26 09:57 | -11.45386 | 19.80321 | 36064 ft | 515 kts | 346° |
| 2026-04-26 09:58 | -11.38518 | 19.78252 | 36041 ft | 513 kts | 345° |
| 2026-04-26 09:58 | -11.31660 | 19.76182 | 36032 ft | 514 kts | 346° |
| 2026-04-26 09:59 | -11.24804 | 19.74116 | 36029 ft | 514 kts | 345° |
| 2026-04-26 09:59 | -11.17941 | 19.72049 | 36029 ft | 514 kts | 346° |
| 2026-04-26 10:00 | -11.11123 | 19.69994 | 36036 ft | 514 kts | 346° |
| 2026-04-26 10:00 | -11.04250 | 19.67931 | 36038 ft | 514 kts | 346° |
| 2026-04-26 10:01 | -10.97388 | 19.65857 | 36037 ft | 514 kts | 346° |
| 2026-04-26 10:01 | -10.90527 | 19.63806 | 36030 ft | 514 kts | 346° |
| 2026-04-26 10:02 | -10.83661 | 19.61727 | 36027 ft | 514 kts | 346° |
| 2026-04-26 10:02 | -10.76796 | 19.59683 | 36025 ft | 514 kts | 346° |
| 2026-04-26 10:03 | -10.69966 | 19.57613 | 36027 ft | 514 kts | 346° |
| 2026-04-26 10:03 | -10.63096 | 19.55571 | 36026 ft | 515 kts | 346° |
| 2026-04-26 10:04 | -10.56213 | 19.53486 | 36025 ft | 515 kts | 346° |
| 2026-04-26 10:04 | -10.49369 | 19.51452 | 36021 ft | 515 kts | 346° |
| 2026-04-26 10:05 | -10.42504 | 19.49379 | 36018 ft | 515 kts | 346° |
| 2026-04-26 10:05 | -10.35628 | 19.47330 | 36020 ft | 515 kts | 346° |
| 2026-04-26 10:06 | -10.28748 | 19.45264 | 36019 ft | 513 kts | 346° |
| 2026-04-26 10:06 | -10.21886 | 19.43213 | 36015 ft | 513 kts | 346° |
| 2026-04-26 10:07 | -10.15038 | 19.41165 | 36011 ft | 513 kts | 346° |
| 2026-04-26 10:07 | -10.08235 | 19.39126 | 36008 ft | 513 kts | 346° |
| 2026-04-26 10:08 | -10.01379 | 19.37085 | 36006 ft | 513 kts | 346° |
| 2026-04-26 10:08 | -9.94534 | 19.35031 | 36006 ft | 512 kts | 346° |
| 2026-04-26 10:09 | -9.87696 | 19.32997 | 36002 ft | 512 kts | 346° |
| 2026-04-26 10:09 | -9.80863 | 19.30950 | 36004 ft | 512 kts | 346° |
| 2026-04-26 10:10 | -9.74057 | 19.28926 | 36008 ft | 512 kts | 346° |
| 2026-04-26 10:10 | -9.67212 | 19.26879 | 36007 ft | 512 kts | 347° |
| 2026-04-26 10:11 | -9.60376 | 19.24838 | 36008 ft | 511 kts | 346° |
| 2026-04-26 10:11 | -9.53593 | 19.22781 | 36005 ft | 511 kts | 347° |
| 2026-04-26 10:12 | -9.46762 | 19.20736 | 36001 ft | 511 kts | 346° |
| 2026-04-26 10:12 | -9.39933 | 19.18673 | 35998 ft | 511 kts | 347° |
| 2026-04-26 10:13 | -9.33141 | 19.16635 | 35996 ft | 511 kts | 346° |
| 2026-04-26 10:13 | -9.26321 | 19.14583 | 36003 ft | 510 kts | 347° |
| 2026-04-26 10:14 | -9.19510 | 19.12534 | 36008 ft | 510 kts | 346° |
| 2026-04-26 10:14 | -9.12704 | 19.10494 | 36009 ft | 510 kts | 347° |
| 2026-04-26 10:15 | -9.05892 | 19.08443 | 36005 ft | 510 kts | 347° |
| 2026-04-26 10:15 | -8.99086 | 19.06405 | 36009 ft | 510 kts | 347° |
| 2026-04-26 10:16 | -8.92321 | 19.04369 | 36004 ft | 510 kts | 347° |
| 2026-04-26 10:16 | -8.85506 | 19.02332 | 36004 ft | 510 kts | 347° |
| 2026-04-26 10:17 | -8.78705 | 19.00285 | 36003 ft | 510 kts | 347° |
| 2026-04-26 10:17 | -8.71895 | 18.98252 | 36002 ft | 510 kts | 347° |
| 2026-04-26 10:18 | -8.65088 | 18.96205 | 36002 ft | 510 kts | 347° |
| 2026-04-26 10:18 | -8.58283 | 18.94174 | 36006 ft | 510 kts | 347° |
| 2026-04-26 10:19 | -8.51518 | 18.92142 | 36007 ft | 510 kts | 347° |
| 2026-04-26 10:19 | -8.44717 | 18.90111 | 36005 ft | 510 kts | 346° |
| 2026-04-26 10:20 | -8.39059 | 18.88414 | 36004 ft | 510 kts | 347° |
| 2026-04-26 10:20 | -8.31108 | 18.86035 | 35999 ft | 510 kts | 346° |
| 2026-04-26 10:21 | -8.24305 | 18.83987 | 36002 ft | 510 kts | 347° |
| 2026-04-26 10:21 | -8.18646 | 18.82286 | 35996 ft | 509 kts | 346° |
| 2026-04-26 10:22 | -8.11931 | 18.80266 | 35988 ft | 494 kts | 347° |
| 2026-04-26 10:22 | -8.05417 | 18.78308 | 36001 ft | 486 kts | 347° |
| 2026-04-26 10:23 | -7.98931 | 18.76367 | 36016 ft | 485 kts | 347° |
| 2026-04-26 10:23 | -7.92500 | 18.74427 | 36210 ft | 487 kts | 347° |
| 2026-04-26 10:24 | -7.89238 | 18.73451 | 36312 ft | 488 kts | 347° |
| 2026-04-26 10:24 | -7.85982 | 18.72481 | 36392 ft | 485 kts | 347° |
| 2026-04-26 10:24 | -7.82769 | 18.71510 | 36509 ft | 480 kts | 347° |
| 2026-04-26 10:24 | -7.79575 | 18.70545 | 36600 ft | 476 kts | 347° |
| 2026-04-26 10:25 | -7.73220 | 18.68654 | 36806 ft | 476 kts | 347° |
| 2026-04-26 10:25 | -7.66852 | 18.66733 | 37014 ft | 478 kts | 347° |
| 2026-04-26 10:26 | -7.63696 | 18.65798 | 37116 ft | 478 kts | 347° |
| 2026-04-26 10:26 | -7.60501 | 18.64837 | 37225 ft | 479 kts | 347° |
| 2026-04-26 10:26 | -7.54195 | 18.62940 | 37458 ft | 465 kts | 347° |
| 2026-04-26 10:27 | -7.51101 | 18.62024 | 37595 ft | 462 kts | 347° |
| 2026-04-26 10:27 | -7.48016 | 18.61094 | 37724 ft | 463 kts | 347° |
| 2026-04-26 10:27 | -7.44920 | 18.60159 | 37868 ft | 464 kts | 347° |
| 2026-04-26 10:27 | -7.41823 | 18.59241 | 38015 ft | 465 kts | 347° |
| 2026-04-26 10:28 | -7.35573 | 18.57363 | 38017 ft | 468 kts | 347° |
| 2026-04-26 10:28 | -7.29369 | 18.55516 | 37977 ft | 467 kts | 347° |
| 2026-04-26 10:29 | -7.23141 | 18.53639 | 38016 ft | 465 kts | 347° |
| 2026-04-26 10:29 | -7.16918 | 18.51794 | 37997 ft | 465 kts | 347° |
| 2026-04-26 10:30 | -7.10685 | 18.49992 | 37986 ft | 465 kts | 348° |
| 2026-04-26 10:30 | -7.04493 | 18.48200 | 38019 ft | 466 kts | 347° |
| 2026-04-26 10:31 | -6.98265 | 18.46406 | 37980 ft | 466 kts | 348° |
| 2026-04-26 10:31 | -6.92037 | 18.44596 | 38013 ft | 466 kts | 347° |
| 2026-04-26 10:32 | -6.85791 | 18.42806 | 37995 ft | 466 kts | 348° |
| 2026-04-26 10:32 | -6.79559 | 18.40989 | 38009 ft | 466 kts | 347° |
| 2026-04-26 10:33 | -6.73309 | 18.39204 | 37998 ft | 467 kts | 348° |
| 2026-04-26 10:33 | -6.67062 | 18.37380 | 37999 ft | 468 kts | 348° |
| 2026-04-26 10:34 | -6.60806 | 18.35596 | 38005 ft | 467 kts | 348° |
| 2026-04-26 10:34 | -6.54578 | 18.33779 | 38009 ft | 465 kts | 348° |
| 2026-04-26 10:35 | -6.48387 | 18.32010 | 38009 ft | 464 kts | 348° |
| 2026-04-26 10:35 | -6.42215 | 18.30216 | 38004 ft | 460 kts | 348° |
| 2026-04-26 10:36 | -6.36035 | 18.28505 | 38002 ft | 460 kts | 348° |
| 2026-04-26 10:36 | -6.29861 | 18.26742 | 38003 ft | 460 kts | 348° |
| 2026-04-26 10:37 | -6.23680 | 18.25026 | 38007 ft | 461 kts | 348° |
| 2026-04-26 10:37 | -6.17489 | 18.23270 | 37992 ft | 462 kts | 349° |
| 2026-04-26 10:38 | -6.11286 | 18.21596 | 37992 ft | 457 kts | 348° |
| 2026-04-26 10:38 | -6.05261 | 18.19902 | 38002 ft | 450 kts | 348° |
| 2026-04-26 10:39 | -5.99193 | 18.18257 | 37998 ft | 452 kts | 348° |
| 2026-04-26 10:39 | -5.93112 | 18.16558 | 38005 ft | 453 kts | 348° |
| 2026-04-26 10:40 | -5.87019 | 18.14897 | 37997 ft | 454 kts | 348° |
| 2026-04-26 10:40 | -5.80915 | 18.13201 | 38002 ft | 454 kts | 348° |
| 2026-04-26 10:41 | -5.74856 | 18.11542 | 37994 ft | 454 kts | 347° |
| 2026-04-26 10:41 | -5.68762 | 18.09857 | 37976 ft | 453 kts | 348° |
| 2026-04-26 10:42 | -5.62685 | 18.08184 | 37992 ft | 452 kts | 347° |
| 2026-04-26 10:42 | -5.56603 | 18.06516 | 37991 ft | 452 kts | 348° |
| 2026-04-26 10:43 | -5.50566 | 18.04844 | 37994 ft | 453 kts | 347° |
| 2026-04-26 10:43 | -5.44463 | 18.03178 | 37990 ft | 454 kts | 347° |
| 2026-04-26 10:44 | -5.38368 | 18.01486 | 37976 ft | 454 kts | 347° |
| 2026-04-26 10:44 | -5.32288 | 17.99754 | 37991 ft | 453 kts | 346° |
| 2026-04-26 10:45 | -5.26276 | 17.98036 | 37993 ft | 452 kts | 347° |
| 2026-04-26 10:45 | -5.20215 | 17.96302 | 37982 ft | 453 kts | 346° |
| 2026-04-26 10:46 | -5.14140 | 17.94578 | 37984 ft | 453 kts | 347° |
| 2026-04-26 10:46 | -5.08109 | 17.92845 | 37990 ft | 453 kts | 346° |
| 2026-04-26 10:47 | -5.01995 | 17.91115 | 37972 ft | 460 kts | 346° |
| 2026-04-26 10:47 | -4.95835 | 17.89346 | 37984 ft | 459 kts | 346° |
| 2026-04-26 10:48 | -4.89680 | 17.87603 | 37979 ft | 459 kts | 346° |
| 2026-04-26 10:48 | -4.83535 | 17.85841 | 37984 ft | 459 kts | 346° |
| 2026-04-26 10:49 | -4.77404 | 17.84151 | 37983 ft | 459 kts | 346° |
| 2026-04-26 10:49 | -4.71251 | 17.82401 | 37977 ft | 458 kts | 346° |
| 2026-04-26 10:50 | -4.66164 | 17.80997 | 37979 ft | 454 kts | 346° |
| 2026-04-26 10:50 | -4.59082 | 17.78995 | 37984 ft | 454 kts | 346° |
| 2026-04-26 10:51 | -4.49945 | 17.76435 | 37982 ft | 454 kts | 346° |
| 2026-04-26 10:52 | -4.43888 | 17.74755 | 37981 ft | 455 kts | 346° |
| 2026-04-26 10:52 | -4.37696 | 17.73005 | 37979 ft | 466 kts | 347° |
| 2026-04-26 10:53 | -4.31383 | 17.71253 | 37984 ft | 477 kts | 346° |
| 2026-04-26 10:53 | -4.24974 | 17.69444 | 37976 ft | 477 kts | 346° |
| 2026-04-26 10:54 | -4.15442 | 17.66777 | 37973 ft | 475 kts | 346° |
| 2026-04-26 10:54 | -4.09075 | 17.65009 | 37974 ft | 475 kts | 346° |
| 2026-04-26 10:55 | -4.02722 | 17.63204 | 37967 ft | 474 kts | 346° |
| 2026-04-26 10:55 | -3.97426 | 17.61729 | 37969 ft | 475 kts | 346° |
| 2026-04-26 10:56 | -3.89977 | 17.59617 | 37969 ft | 476 kts | 346° |
| 2026-04-26 10:56 | -3.83600 | 17.57841 | 37974 ft | 475 kts | 346° |
| 2026-04-26 10:57 | -3.77269 | 17.56044 | 37964 ft | 475 kts | 346° |
| 2026-04-26 10:57 | -3.70890 | 17.54263 | 37972 ft | 475 kts | 346° |
| 2026-04-26 10:58 | -3.64527 | 17.52465 | 37973 ft | 474 kts | 346° |
| 2026-04-26 10:58 | -3.58162 | 17.50681 | 37968 ft | 474 kts | 346° |
| 2026-04-26 10:59 | -3.51815 | 17.48894 | 37966 ft | 473 kts | 347° |
| 2026-04-26 10:59 | -3.45499 | 17.47117 | 37970 ft | 474 kts | 346° |
| 2026-04-26 11:00 | -3.39125 | 17.45332 | 37966 ft | 475 kts | 347° |
| 2026-04-26 11:00 | -3.32739 | 17.43538 | 37975 ft | 476 kts | 347° |
| 2026-04-26 11:01 | -3.26395 | 17.41775 | 37973 ft | 475 kts | 347° |
| 2026-04-26 11:01 | -3.20038 | 17.39983 | 37976 ft | 473 kts | 347° |
| 2026-04-26 11:02 | -3.13712 | 17.38227 | 37970 ft | 470 kts | 346° |
| 2026-04-26 11:02 | -3.07408 | 17.36455 | 37964 ft | 471 kts | 347° |
| 2026-04-26 11:03 | -3.01117 | 17.34703 | 37964 ft | 472 kts | 346° |
| 2026-04-26 11:03 | -2.94798 | 17.32934 | 37969 ft | 472 kts | 347° |
| 2026-04-26 11:04 | -2.88468 | 17.31164 | 37967 ft | 472 kts | 346° |
| 2026-04-26 11:04 | -2.82144 | 17.29400 | 37967 ft | 471 kts | 346° |
| 2026-04-26 11:05 | -2.75839 | 17.27631 | 37972 ft | 470 kts | 346° |
| 2026-04-26 11:05 | -2.69572 | 17.25891 | 37964 ft | 470 kts | 346° |
| 2026-04-26 11:06 | -2.64290 | 17.24404 | 37966 ft | 470 kts | 346° |
| 2026-04-26 11:06 | -2.56937 | 17.22364 | 37965 ft | 474 kts | 346° |
| 2026-04-26 11:07 | -2.50602 | 17.20578 | 37966 ft | 474 kts | 346° |
| 2026-04-26 11:07 | -2.44214 | 17.18809 | 37970 ft | 475 kts | 346° |
| 2026-04-26 11:08 | -2.38928 | 17.17317 | 37970 ft | 475 kts | 346° |
| 2026-04-26 11:08 | -2.32548 | 17.15551 | 37972 ft | 475 kts | 346° |
| 2026-04-26 11:09 | -2.26177 | 17.13760 | 37970 ft | 476 kts | 346° |
| 2026-04-26 11:09 | -2.19825 | 17.11995 | 37975 ft | 476 kts | 346° |
| 2026-04-26 11:10 | -2.13420 | 17.10203 | 37969 ft | 477 kts | 346° |
| 2026-04-26 11:10 | -2.07046 | 17.08424 | 37973 ft | 477 kts | 346° |
| 2026-04-26 11:11 | -2.00655 | 17.06644 | 37977 ft | 476 kts | 346° |
| 2026-04-26 11:11 | -1.94269 | 17.04854 | 37985 ft | 475 kts | 346° |
| 2026-04-26 11:12 | -1.87910 | 17.03091 | 37973 ft | 472 kts | 347° |
| 2026-04-26 11:12 | -1.81563 | 17.01348 | 37973 ft | 473 kts | 346° |
| 2026-04-26 11:13 | -1.75272 | 16.99616 | 37976 ft | 471 kts | 346° |
| 2026-04-26 11:13 | -1.68943 | 16.97880 | 37981 ft | 472 kts | 346° |
| 2026-04-26 11:14 | -1.62612 | 16.96132 | 37984 ft | 472 kts | 346° |
| 2026-04-26 11:14 | -1.56273 | 16.94400 | 37982 ft | 472 kts | 346° |
| 2026-04-26 11:15 | -1.49920 | 16.92641 | 37984 ft | 472 kts | 346° |
| 2026-04-26 11:15 | -1.43615 | 16.90921 | 37977 ft | 473 kts | 345° |
| 2026-04-26 11:16 | -1.37259 | 16.89161 | 37977 ft | 474 kts | 346° |
| 2026-04-26 11:16 | -1.30900 | 16.87424 | 37979 ft | 474 kts | 345° |
| 2026-04-26 11:17 | -1.24532 | 16.85667 | 37976 ft | 474 kts | 346° |
| 2026-04-26 11:17 | -1.18174 | 16.83914 | 37977 ft | 473 kts | 345° |
| 2026-04-26 11:18 | -1.11869 | 16.82122 | 37982 ft | 472 kts | 345° |
| 2026-04-26 11:18 | -1.05524 | 16.80358 | 37982 ft | 473 kts | 345° |
| 2026-04-26 11:19 | -0.99179 | 16.78565 | 37980 ft | 475 kts | 346° |
| 2026-04-26 11:19 | -0.92810 | 16.76785 | 37982 ft | 475 kts | 345° |
| 2026-04-26 11:20 | -0.87514 | 16.75290 | 37981 ft | 475 kts | 346° |
| 2026-04-26 11:20 | -0.80075 | 16.73206 | 37982 ft | 475 kts | 346° |
| 2026-04-26 11:21 | -0.73759 | 16.71440 | 37984 ft | 474 kts | 346° |
| 2026-04-26 11:21 | -0.67412 | 16.69648 | 37994 ft | 472 kts | 345° |
| 2026-04-26 11:22 | -0.61098 | 16.67890 | 37983 ft | 470 kts | 346° |
| 2026-04-26 11:22 | -0.54807 | 16.66109 | 37985 ft | 470 kts | 346° |
| 2026-04-26 11:23 | -0.48501 | 16.64349 | 37980 ft | 471 kts | 346° |
| 2026-04-26 11:23 | -0.42226 | 16.62563 | 37989 ft | 471 kts | 346° |
| 2026-04-26 11:24 | -0.35910 | 16.60800 | 37988 ft | 472 kts | 345° |
| 2026-04-26 11:24 | -0.29578 | 16.59002 | 37990 ft | 472 kts | 346° |
| 2026-04-26 11:25 | -0.23243 | 16.57227 | 37986 ft | 472 kts | 345° |
| 2026-04-26 11:25 | -0.16929 | 16.55443 | 37989 ft | 470 kts | 346° |
| 2026-04-26 11:26 | -0.10665 | 16.53678 | 37983 ft | 470 kts | 345° |
| 2026-04-26 11:26 | -0.04385 | 16.51913 | 37986 ft | 469 kts | 346° |
| 2026-04-26 11:27 | 0.01930 | 16.50126 | 37986 ft | 474 kts | 345° |
| 2026-04-26 11:27 | 0.08310 | 16.48340 | 37992 ft | 476 kts | 346° |
| 2026-04-26 11:28 | 0.14650 | 16.46539 | 37990 ft | 476 kts | 345° |
| 2026-04-26 11:28 | 0.21041 | 16.44754 | 37988 ft | 475 kts | 346° |
| 2026-04-26 11:29 | 0.27400 | 16.42946 | 37991 ft | 475 kts | 346° |
| 2026-04-26 11:29 | 0.33772 | 16.41166 | 37984 ft | 474 kts | 345° |
| 2026-04-26 11:30 | 0.39055 | 16.39662 | 37983 ft | 477 kts | 346° |
| 2026-04-26 11:30 | 0.46529 | 16.37569 | 37992 ft | 481 kts | 345° |
| 2026-04-26 11:31 | 0.52972 | 16.35746 | 37982 ft | 480 kts | 346° |
| 2026-04-26 11:31 | 0.59400 | 16.33937 | 37984 ft | 479 kts | 345° |
| 2026-04-26 11:32 | 0.65808 | 16.32133 | 37985 ft | 477 kts | 346° |
| 2026-04-26 11:32 | 0.72191 | 16.30328 | 37983 ft | 478 kts | 345° |
| 2026-04-26 11:33 | 0.78610 | 16.28530 | 37982 ft | 477 kts | 346° |
| 2026-04-26 11:33 | 0.84983 | 16.26720 | 37983 ft | 476 kts | 345° |
| 2026-04-26 11:34 | 0.91368 | 16.24937 | 37982 ft | 476 kts | 346° |
| 2026-04-26 11:34 | 0.97760 | 16.23118 | 37981 ft | 477 kts | 346° |
| 2026-04-26 11:35 | 1.04169 | 16.21330 | 37987 ft | 478 kts | 346° |
| 2026-04-26 11:35 | 1.09496 | 16.19810 | 37982 ft | 479 kts | 346° |
| 2026-04-26 11:36 | 1.16944 | 16.17725 | 37984 ft | 476 kts | 345° |
| 2026-04-26 11:36 | 1.23323 | 16.15918 | 37986 ft | 475 kts | 346° |
| 2026-04-26 11:37 | 1.29696 | 16.14127 | 37980 ft | 476 kts | 345° |
| 2026-04-26 11:37 | 1.36073 | 16.12327 | 37979 ft | 476 kts | 346° |
| 2026-04-26 11:38 | 1.42406 | 16.10540 | 37976 ft | 476 kts | 345° |
| 2026-04-26 11:38 | 1.48795 | 16.08745 | 37971 ft | 477 kts | 346° |
| 2026-04-26 11:39 | 1.55223 | 16.06921 | 37977 ft | 480 kts | 345° |
| 2026-04-26 11:39 | 1.61660 | 16.05120 | 37974 ft | 480 kts | 346° |
| 2026-04-26 11:40 | 1.68079 | 16.03294 | 37978 ft | 480 kts | 345° |
| 2026-04-26 11:40 | 1.74478 | 16.01506 | 37976 ft | 480 kts | 345° |
| 2026-04-26 11:42 | 2.00202 | 15.94245 | 37967 ft | 481 kts | 345° |
| 2026-04-26 11:43 | 2.06653 | 15.92421 | 37966 ft | 481 kts | 345° |
| 2026-04-26 11:43 | 2.13099 | 15.90602 | 37971 ft | 480 kts | 345° |
| 2026-04-26 11:44 | 2.19489 | 15.88804 | 37974 ft | 479 kts | 345° |
| 2026-04-26 11:44 | 2.25911 | 15.86982 | 37970 ft | 478 kts | 345° |
| 2026-04-26 11:45 | 2.32319 | 15.85187 | 37970 ft | 477 kts | 345° |
| 2026-04-26 11:45 | 2.38693 | 15.83372 | 37973 ft | 474 kts | 345° |
| 2026-04-26 11:46 | 2.45016 | 15.81604 | 37970 ft | 473 kts | 345° |
| 2026-04-26 11:46 | 2.51372 | 15.79793 | 37971 ft | 474 kts | 345° |
| 2026-04-26 11:47 | 2.57723 | 15.78015 | 37970 ft | 474 kts | 345° |
| 2026-04-26 11:47 | 2.64084 | 15.76206 | 37974 ft | 475 kts | 345° |
| 2026-04-26 11:48 | 2.70450 | 15.74418 | 37973 ft | 475 kts | 345° |
| 2026-04-26 11:48 | 2.76769 | 15.72628 | 37967 ft | 475 kts | 345° |
| 2026-04-26 11:49 | 2.83148 | 15.70828 | 37972 ft | 475 kts | 345° |
| 2026-04-26 11:49 | 2.89529 | 15.69058 | 37968 ft | 475 kts | 345° |
| 2026-04-26 11:50 | 2.95892 | 15.67261 | 37974 ft | 475 kts | 346° |
| 2026-04-26 11:50 | 3.02275 | 15.65495 | 37975 ft | 476 kts | 346° |
| 2026-04-26 11:51 | 3.08613 | 15.63702 | 37976 ft | 475 kts | 346° |
| 2026-04-26 11:51 | 3.14955 | 15.61948 | 37976 ft | 472 kts | 346° |
| 2026-04-26 11:52 | 3.20219 | 15.60456 | 37972 ft | 472 kts | 346° |
| 2026-04-26 11:52 | 3.26554 | 15.58701 | 37976 ft | 472 kts | 346° |
| 2026-04-26 11:53 | 3.33921 | 15.56625 | 37974 ft | 473 kts | 346° |
| 2026-04-26 11:54 | 3.42411 | 15.54248 | 37967 ft | 473 kts | 346° |
| 2026-04-26 11:54 | 3.48720 | 15.52494 | 37970 ft | 474 kts | 346° |
| 2026-04-26 11:55 | 3.55075 | 15.50700 | 37964 ft | 474 kts | 346° |
| 2026-04-26 11:55 | 3.61433 | 15.48936 | 37963 ft | 473 kts | 346° |
| 2026-04-26 11:56 | 3.67788 | 15.47139 | 37961 ft | 473 kts | 346° |
| 2026-04-26 11:56 | 3.74149 | 15.45373 | 37958 ft | 475 kts | 346° |
| 2026-04-26 11:57 | 3.80470 | 15.43588 | 37957 ft | 474 kts | 346° |
| 2026-04-26 11:57 | 3.86838 | 15.41814 | 37957 ft | 473 kts | 346° |
| 2026-04-26 11:58 | 3.93189 | 15.40029 | 37961 ft | 472 kts | 346° |
| 2026-04-26 11:58 | 3.99480 | 15.38266 | 37953 ft | 473 kts | 346° |
| 2026-04-26 11:59 | 4.05838 | 15.36488 | 37954 ft | 474 kts | 346° |
| 2026-04-26 11:59 | 4.12222 | 15.34689 | 37955 ft | 476 kts | 345° |
| 2026-04-26 12:00 | 4.18579 | 15.32918 | 37958 ft | 476 kts | 345° |
| 2026-04-26 12:00 | 4.24967 | 15.31096 | 37961 ft | 476 kts | 345° |
| 2026-04-26 12:01 | 4.31353 | 15.29311 | 37966 ft | 476 kts | 345° |
| 2026-04-26 12:01 | 4.37681 | 15.27503 | 37955 ft | 474 kts | 345° |
| 2026-04-26 12:02 | 4.44034 | 15.25726 | 37953 ft | 472 kts | 345° |
| 2026-04-26 12:02 | 4.50348 | 15.23923 | 37957 ft | 471 kts | 346° |
| 2026-04-26 12:03 | 4.56649 | 15.22159 | 37960 ft | 472 kts | 345° |
| 2026-04-26 12:03 | 4.62971 | 15.20356 | 37955 ft | 472 kts | 346° |
| 2026-04-26 12:04 | 4.69294 | 15.18579 | 37959 ft | 472 kts | 345° |
| 2026-04-26 12:04 | 4.75627 | 15.16780 | 37957 ft | 473 kts | 346° |
| 2026-04-26 12:05 | 4.81958 | 15.14992 | 37958 ft | 471 kts | 345° |
| 2026-04-26 12:05 | 4.88249 | 15.13212 | 37960 ft | 469 kts | 345° |
| 2026-04-26 12:06 | 4.94501 | 15.11438 | 37957 ft | 469 kts | 345° |
| 2026-04-26 12:06 | 5.00794 | 15.09665 | 37964 ft | 470 kts | 345° |
| 2026-04-26 12:07 | 5.07087 | 15.07870 | 37963 ft | 470 kts | 345° |
| 2026-04-26 12:07 | 5.13392 | 15.06099 | 37968 ft | 470 kts | 345° |
| 2026-04-26 12:08 | 5.19705 | 15.04294 | 37955 ft | 474 kts | 345° |
| 2026-04-26 12:08 | 5.26034 | 15.02518 | 37957 ft | 474 kts | 345° |
| 2026-04-26 12:09 | 5.32381 | 15.00702 | 37961 ft | 474 kts | 345° |
| 2026-04-26 12:09 | 5.38726 | 14.98919 | 37964 ft | 473 kts | 345° |
| 2026-04-26 12:10 | 5.45070 | 14.97107 | 37967 ft | 473 kts | 345° |
| 2026-04-26 12:10 | 5.51372 | 14.95330 | 37955 ft | 473 kts | 345° |
| 2026-04-26 12:11 | 5.57739 | 14.93517 | 37962 ft | 478 kts | 345° |
| 2026-04-26 12:11 | 5.64140 | 14.91704 | 37957 ft | 477 kts | 345° |
| 2026-04-26 12:12 | 5.70533 | 14.89890 | 37963 ft | 477 kts | 345° |
| 2026-04-26 12:12 | 5.76919 | 14.88072 | 37958 ft | 477 kts | 345° |
| 2026-04-26 12:13 | 5.83301 | 14.86269 | 37953 ft | 476 kts | 345° |
| 2026-04-26 12:13 | 5.89649 | 14.84454 | 37952 ft | 476 kts | 345° |
| 2026-04-26 12:14 | 5.96063 | 14.82646 | 37955 ft | 478 kts | 345° |
| 2026-04-26 12:14 | 6.02473 | 14.80811 | 37956 ft | 479 kts | 345° |
| 2026-04-26 12:15 | 6.08843 | 14.79012 | 37955 ft | 478 kts | 345° |
| 2026-04-26 12:15 | 6.15260 | 14.77178 | 37951 ft | 478 kts | 345° |
| 2026-04-26 12:16 | 6.21660 | 14.75366 | 37955 ft | 477 kts | 345° |
| 2026-04-26 12:16 | 6.28063 | 14.73541 | 37945 ft | 478 kts | 346° |
| 2026-04-26 12:17 | 6.34431 | 14.71730 | 37950 ft | 479 kts | 345° |
| 2026-04-26 12:17 | 6.40841 | 14.69906 | 37951 ft | 479 kts | 346° |
| 2026-04-26 12:18 | 6.47253 | 14.68079 | 37954 ft | 479 kts | 345° |
| 2026-04-26 12:18 | 6.53673 | 14.66254 | 37948 ft | 478 kts | 345° |
| 2026-04-26 12:19 | 6.60082 | 14.64427 | 37946 ft | 479 kts | 345° |
| 2026-04-26 12:19 | 6.66489 | 14.62601 | 37944 ft | 477 kts | 345° |
| 2026-04-26 12:20 | 6.72891 | 14.60780 | 37948 ft | 477 kts | 345° |
| 2026-04-26 12:20 | 6.79239 | 14.58965 | 37954 ft | 477 kts | 345° |
| 2026-04-26 12:21 | 6.85641 | 14.57146 | 37941 ft | 477 kts | 345° |
| 2026-04-26 12:21 | 6.92031 | 14.55319 | 37942 ft | 477 kts | 345° |
| 2026-04-26 12:22 | 6.98430 | 14.53496 | 37946 ft | 478 kts | 345° |
| 2026-04-26 12:22 | 7.04829 | 14.51669 | 37944 ft | 478 kts | 345° |
| 2026-04-26 12:23 | 7.11196 | 14.49852 | 37949 ft | 477 kts | 345° |
| 2026-04-26 12:23 | 7.17599 | 14.48022 | 37949 ft | 477 kts | 345° |
| 2026-04-26 12:24 | 7.23992 | 14.46200 | 37943 ft | 478 kts | 345° |
| 2026-04-26 12:24 | 7.30345 | 14.44379 | 37948 ft | 477 kts | 345° |
| 2026-04-26 12:25 | 7.39932 | 14.41642 | 37930 ft | 477 kts | 345° |
| 2026-04-26 12:25 | 7.46309 | 14.39820 | 37931 ft | 476 kts | 345° |
| 2026-04-26 12:26 | 7.52692 | 14.37992 | 37932 ft | 476 kts | 345° |
| 2026-04-26 12:26 | 7.59077 | 14.36167 | 37932 ft | 476 kts | 345° |
| 2026-04-26 12:27 | 7.65459 | 14.34342 | 37935 ft | 477 kts | 345° |
| 2026-04-26 12:27 | 7.71842 | 14.32510 | 37935 ft | 476 kts | 345° |
| 2026-04-26 12:28 | 7.78221 | 14.30689 | 37942 ft | 476 kts | 345° |
| 2026-04-26 12:28 | 7.84583 | 14.28861 | 37931 ft | 475 kts | 345° |
| 2026-04-26 12:29 | 7.90907 | 14.27056 | 37933 ft | 475 kts | 345° |
| 2026-04-26 12:30 | 8.00450 | 14.24318 | 37924 ft | 475 kts | 345° |
| 2026-04-26 12:30 | 8.06823 | 14.22487 | 37925 ft | 476 kts | 345° |
| 2026-04-26 12:31 | 8.16410 | 14.19741 | 37908 ft | 478 kts | 345° |
| 2026-04-26 12:31 | 8.22775 | 14.17915 | 37911 ft | 477 kts | 345° |
| 2026-04-26 12:32 | 8.29177 | 14.16074 | 37893 ft | 477 kts | 345° |
| 2026-04-26 12:33 | 8.38716 | 14.13342 | 37878 ft | 477 kts | 345° |
| 2026-04-26 12:33 | 8.45106 | 14.11502 | 37880 ft | 477 kts | 345° |
| 2026-04-26 12:34 | 8.51501 | 14.09666 | 37878 ft | 478 kts | 345° |
| 2026-04-26 12:34 | 8.57876 | 14.07836 | 37882 ft | 479 kts | 345° |
| 2026-04-26 12:35 | 8.64281 | 14.05988 | 37883 ft | 479 kts | 345° |
| 2026-04-26 12:35 | 8.70684 | 14.04156 | 37886 ft | 478 kts | 345° |
| 2026-04-26 12:36 | 8.77067 | 14.02305 | 37883 ft | 477 kts | 345° |
| 2026-04-26 12:36 | 8.83447 | 14.00482 | 37882 ft | 476 kts | 344° |
| 2026-04-26 12:37 | 8.89820 | 13.98630 | 37881 ft | 477 kts | 345° |
| 2026-04-26 12:37 | 8.96212 | 13.96802 | 37886 ft | 477 kts | 344° |
| 2026-04-26 12:38 | 9.02610 | 13.94946 | 37884 ft | 478 kts | 345° |
| 2026-04-26 12:38 | 9.08954 | 13.93123 | 37887 ft | 476 kts | 345° |
| 2026-04-26 12:39 | 9.15336 | 13.91278 | 37896 ft | 477 kts | 344° |
| 2026-04-26 12:39 | 9.21752 | 13.89428 | 37899 ft | 475 kts | 344° |
| 2026-04-26 12:40 | 9.28049 | 13.87608 | 37902 ft | 472 kts | 344° |
| 2026-04-26 12:40 | 9.34384 | 13.85780 | 37896 ft | 473 kts | 344° |
| 2026-04-26 12:41 | 9.39654 | 13.84241 | 37891 ft | 473 kts | 343° |
| 2026-04-26 12:41 | 9.45971 | 13.82369 | 37898 ft | 473 kts | 344° |
| 2026-04-26 12:42 | 9.52269 | 13.80526 | 37892 ft | 473 kts | 343° |
| 2026-04-26 12:42 | 9.58615 | 13.78699 | 37886 ft | 472 kts | 343° |
| 2026-04-26 12:43 | 9.64913 | 13.76871 | 37899 ft | 470 kts | 342° |
| 2026-04-26 12:43 | 9.71211 | 13.75053 | 37912 ft | 471 kts | 343° |
| 2026-04-26 12:44 | 9.77519 | 13.73226 | 37913 ft | 471 kts | 342° |
| 2026-04-26 12:44 | 9.83788 | 13.71412 | 37911 ft | 471 kts | 343° |
| 2026-04-26 12:45 | 9.90090 | 13.69586 | 37914 ft | 471 kts | 343° |
| 2026-04-26 12:45 | 9.96401 | 13.67759 | 37919 ft | 471 kts | 343° |
| 2026-04-26 12:46 | 10.02711 | 13.65927 | 37922 ft | 471 kts | 342° |
| 2026-04-26 12:46 | 10.09021 | 13.64102 | 37918 ft | 472 kts | 343° |
| 2026-04-26 12:47 | 10.15298 | 13.62286 | 37924 ft | 472 kts | 343° |
| 2026-04-26 12:47 | 10.21630 | 13.60459 | 37927 ft | 472 kts | 343° |
| 2026-04-26 12:48 | 10.27972 | 13.58622 | 37925 ft | 473 kts | 343° |
| 2026-04-26 12:48 | 10.34301 | 13.56792 | 37916 ft | 472 kts | 342° |
| 2026-04-26 12:49 | 10.40608 | 13.54966 | 37922 ft | 472 kts | 342° |
| 2026-04-26 12:49 | 10.46928 | 13.53136 | 37912 ft | 472 kts | 342° |
| 2026-04-26 12:50 | 10.53210 | 13.51314 | 37910 ft | 472 kts | 342° |
| 2026-04-26 12:50 | 10.59533 | 13.49484 | 37890 ft | 472 kts | 343° |
| 2026-04-26 12:51 | 10.65812 | 13.47496 | 37886 ft | 472 kts | 343° |
| 2026-04-26 12:51 | 10.72106 | 13.45649 | 37873 ft | 473 kts | 341° |
| 2026-04-26 12:52 | 10.78385 | 13.43614 | 37875 ft | 473 kts | 342° |
| 2026-04-26 12:52 | 10.84715 | 13.41723 | 37873 ft | 472 kts | 341° |
| 2026-04-26 12:53 | 10.90987 | 13.39715 | 37876 ft | 472 kts | 342° |
| 2026-04-26 12:53 | 10.97244 | 13.37822 | 37875 ft | 471 kts | 341° |
| 2026-04-26 12:54 | 11.03513 | 13.35832 | 37867 ft | 471 kts | 342° |
| 2026-04-26 12:54 | 11.09792 | 13.33913 | 37865 ft | 470 kts | 341° |
| 2026-04-26 12:55 | 11.16011 | 13.31954 | 37848 ft | 471 kts | 342° |
| 2026-04-26 12:55 | 11.22300 | 13.30016 | 37850 ft | 471 kts | 341° |
| 2026-04-26 12:56 | 11.28568 | 13.28053 | 37851 ft | 471 kts | 342° |
| 2026-04-26 12:56 | 11.34802 | 13.26117 | 37846 ft | 471 kts | 341° |
| 2026-04-26 12:57 | 11.41073 | 13.24162 | 37846 ft | 471 kts | 342° |
| 2026-04-26 12:57 | 11.47341 | 13.22204 | 37844 ft | 470 kts | 341° |
| 2026-04-26 12:58 | 11.56722 | 13.19292 | 37843 ft | 470 kts | 341° |
| 2026-04-26 12:58 | 11.62966 | 13.17326 | 37842 ft | 469 kts | 342° |
| 2026-04-26 12:59 | 11.69227 | 13.15384 | 37840 ft | 469 kts | 341° |
| 2026-04-26 12:59 | 11.75478 | 13.13423 | 37839 ft | 470 kts | 342° |
| 2026-04-26 13:00 | 11.81701 | 13.11482 | 37823 ft | 470 kts | 341° |
| 2026-04-26 13:00 | 11.87970 | 13.09563 | 37816 ft | 470 kts | 345° |
| 2026-04-26 13:01 | 11.94308 | 13.07872 | 37820 ft | 469 kts | 342° |
| 2026-04-26 13:01 | 12.00583 | 13.06155 | 37823 ft | 470 kts | 345° |
| 2026-04-26 13:02 | 12.06924 | 13.04471 | 37820 ft | 470 kts | 343° |
| 2026-04-26 13:02 | 12.13250 | 13.02752 | 37815 ft | 469 kts | 344° |
| 2026-04-26 13:03 | 12.19560 | 13.01063 | 37820 ft | 468 kts | 342° |
| 2026-04-26 13:03 | 12.25825 | 12.99369 | 37821 ft | 468 kts | 344° |
| 2026-04-26 13:04 | 12.32124 | 12.97671 | 37823 ft | 468 kts | 343° |
| 2026-04-26 13:04 | 12.38439 | 12.95972 | 37820 ft | 469 kts | 343° |
| 2026-04-26 13:05 | 12.44742 | 12.94260 | 37818 ft | 469 kts | 343° |
| 2026-04-26 13:05 | 12.51056 | 12.92568 | 37823 ft | 467 kts | 343° |
| 2026-04-26 13:06 | 12.57333 | 12.90855 | 37828 ft | 466 kts | 342° |
| 2026-04-26 13:06 | 12.63577 | 12.89184 | 37827 ft | 467 kts | 343° |
| 2026-04-26 13:07 | 12.69862 | 12.87464 | 37828 ft | 467 kts | 342° |
| 2026-04-26 13:07 | 12.76163 | 12.85779 | 37830 ft | 468 kts | 342° |
| 2026-04-26 13:08 | 12.82459 | 12.84053 | 37826 ft | 469 kts | 342° |
| 2026-04-26 13:08 | 12.88842 | 12.82343 | 37829 ft | 475 kts | 342° |
| 2026-04-26 13:09 | 12.95223 | 12.80595 | 37830 ft | 474 kts | 342° |
| 2026-04-26 13:09 | 13.01613 | 12.78878 | 37829 ft | 474 kts | 342° |
| 2026-04-26 13:10 | 13.07955 | 12.77143 | 37829 ft | 474 kts | 342° |
| 2026-04-26 13:10 | 13.14372 | 12.75410 | 37827 ft | 479 kts | 342° |
| 2026-04-26 13:11 | 13.20810 | 12.73654 | 37827 ft | 476 kts | 343° |
| 2026-04-26 13:11 | 13.27210 | 12.71920 | 37831 ft | 475 kts | 343° |
| 2026-04-26 13:12 | 13.33577 | 12.70133 | 37827 ft | 474 kts | 342° |
| 2026-04-26 13:12 | 13.39897 | 12.68313 | 37822 ft | 475 kts | 343° |
| 2026-04-26 13:13 | 13.46266 | 12.66513 | 37818 ft | 475 kts | 342° |
| 2026-04-26 13:13 | 13.52640 | 12.64689 | 37820 ft | 475 kts | 343° |
| 2026-04-26 13:14 | 13.59003 | 12.62878 | 37817 ft | 473 kts | 342° |
| 2026-04-26 13:14 | 13.65338 | 12.61073 | 37815 ft | 473 kts | 342° |
| 2026-04-26 13:15 | 13.71685 | 12.59254 | 37814 ft | 473 kts | 342° |
| 2026-04-26 13:15 | 13.76960 | 12.57755 | 37816 ft | 473 kts | 342° |
| 2026-04-26 13:16 | 13.84351 | 12.55633 | 37804 ft | 473 kts | 342° |
| 2026-04-26 13:16 | 13.90700 | 12.53836 | 37811 ft | 473 kts | 342° |
| 2026-04-26 13:17 | 14.00200 | 12.51109 | 37812 ft | 472 kts | 342° |
| 2026-04-26 13:18 | 14.09670 | 12.48388 | 37814 ft | 471 kts | 342° |
| 2026-04-26 13:19 | 14.19169 | 12.45668 | 37809 ft | 473 kts | 341° |
| 2026-04-26 13:19 | 14.25520 | 12.43849 | 37812 ft | 474 kts | 341° |
| 2026-04-26 13:20 | 14.31863 | 12.41999 | 37811 ft | 474 kts | 341° |
| 2026-04-26 13:20 | 14.38183 | 12.40189 | 37810 ft | 474 kts | 341° |
| 2026-04-26 13:21 | 14.44525 | 12.38339 | 37810 ft | 472 kts | 342° |
| 2026-04-26 13:21 | 14.50864 | 12.36516 | 37807 ft | 471 kts | 341° |
| 2026-04-26 13:22 | 14.57132 | 12.34691 | 37810 ft | 471 kts | 342° |
| 2026-04-26 13:22 | 14.63455 | 12.32864 | 37811 ft | 470 kts | 341° |
| 2026-04-26 13:23 | 14.69753 | 12.31037 | 37814 ft | 470 kts | 342° |
| 2026-04-26 13:23 | 14.76024 | 12.29213 | 37813 ft | 470 kts | 341° |
| 2026-04-26 13:24 | 14.82326 | 12.27392 | 37821 ft | 470 kts | 341° |
| 2026-04-26 13:24 | 14.88617 | 12.25552 | 37815 ft | 470 kts | 341° |
| 2026-04-26 13:25 | 14.94922 | 12.23734 | 37812 ft | 470 kts | 341° |
| 2026-04-26 13:25 | 15.01226 | 12.21884 | 37806 ft | 469 kts | 341° |
| 2026-04-26 13:26 | 15.07516 | 12.20070 | 37809 ft | 468 kts | 341° |
| 2026-04-26 13:26 | 15.12730 | 12.18536 | 37821 ft | 469 kts | 341° |
| 2026-04-26 13:27 | 15.20036 | 12.16419 | 37813 ft | 469 kts | 341° |
| 2026-04-26 13:27 | 15.25308 | 12.14871 | 37812 ft | 470 kts | 341° |
| 2026-04-26 13:28 | 15.31570 | 12.13053 | 37830 ft | 470 kts | 341° |
| 2026-04-26 13:28 | 15.37879 | 12.11192 | 37808 ft | 470 kts | 341° |
| 2026-04-26 13:29 | 15.44172 | 12.09354 | 37819 ft | 469 kts | 341° |
| 2026-04-26 13:29 | 15.50424 | 12.07517 | 37813 ft | 469 kts | 341° |
| 2026-04-26 13:30 | 15.56697 | 12.05673 | 37822 ft | 468 kts | 341° |
| 2026-04-26 13:30 | 15.62967 | 12.03838 | 37822 ft | 468 kts | 341° |
| 2026-04-26 13:31 | 15.69256 | 12.01979 | 37822 ft | 469 kts | 340° |
| 2026-04-26 13:31 | 15.75496 | 12.00155 | 37826 ft | 468 kts | 340° |
| 2026-04-26 13:32 | 15.81765 | 11.98297 | 37826 ft | 468 kts | 340° |
| 2026-04-26 13:32 | 15.88038 | 11.96462 | 37833 ft | 467 kts | 340° |
| 2026-04-26 13:33 | 15.94295 | 11.94606 | 37836 ft | 468 kts | 340° |
| 2026-04-26 13:33 | 16.00531 | 11.92776 | 37824 ft | 468 kts | 340° |
| 2026-04-26 13:34 | 16.06809 | 11.90918 | 37820 ft | 468 kts | 340° |
| 2026-04-26 13:34 | 16.13084 | 11.89066 | 37822 ft | 468 kts | 340° |
| 2026-04-26 13:35 | 16.19347 | 11.87218 | 37825 ft | 468 kts | 340° |
| 2026-04-26 13:35 | 16.25607 | 11.85360 | 37823 ft | 468 kts | 340° |
| 2026-04-26 13:36 | 16.31873 | 11.83517 | 37827 ft | 468 kts | 340° |
| 2026-04-26 13:36 | 16.38145 | 11.81646 | 37827 ft | 468 kts | 340° |
| 2026-04-26 13:37 | 16.44397 | 11.79809 | 37841 ft | 466 kts | 340° |
| 2026-04-26 13:37 | 16.50590 | 11.77957 | 37831 ft | 466 kts | 340° |
| 2026-04-26 13:38 | 16.56829 | 11.76121 | 37836 ft | 466 kts | 340° |
| 2026-04-26 13:38 | 16.63066 | 11.74256 | 37840 ft | 466 kts | 340° |
| 2026-04-26 13:39 | 16.69315 | 11.72410 | 37840 ft | 466 kts | 340° |
| 2026-04-26 13:39 | 16.75521 | 11.70557 | 37842 ft | 466 kts | 340° |
| 2026-04-26 13:40 | 16.81749 | 11.68709 | 37846 ft | 465 kts | 340° |
| 2026-04-26 13:40 | 16.87980 | 11.66853 | 37841 ft | 465 kts | 340° |
| 2026-04-26 13:41 | 16.94211 | 11.64995 | 37844 ft | 466 kts | 339° |
| 2026-04-26 13:41 | 17.00416 | 11.63150 | 37848 ft | 466 kts | 340° |
| 2026-04-26 13:42 | 17.06658 | 11.61280 | 37847 ft | 466 kts | 339° |
| 2026-04-26 13:42 | 17.12897 | 11.59427 | 37838 ft | 466 kts | 339° |
| 2026-04-26 13:43 | 17.19127 | 11.57556 | 37844 ft | 465 kts | 339° |
| 2026-04-26 13:43 | 17.25349 | 11.55706 | 37845 ft | 464 kts | 339° |
| 2026-04-26 13:44 | 17.31567 | 11.53836 | 37854 ft | 466 kts | 339° |
| 2026-04-26 13:44 | 17.37765 | 11.51990 | 37849 ft | 466 kts | 339° |
| 2026-04-26 13:45 | 17.44003 | 11.50099 | 37844 ft | 465 kts | 337° |
| 2026-04-26 13:45 | 17.49841 | 11.47366 | 37848 ft | 459 kts | 330° |
| 2026-04-26 13:46 | 17.55703 | 11.44655 | 37840 ft | 461 kts | 331° |
| 2026-04-26 13:46 | 17.61516 | 11.41818 | 37841 ft | 461 kts | 330° |
| 2026-04-26 13:47 | 17.67389 | 11.39079 | 37844 ft | 462 kts | 331° |
| 2026-04-26 13:47 | 17.73210 | 11.36249 | 37845 ft | 460 kts | 330° |
| 2026-04-26 13:48 | 17.79017 | 11.33526 | 37844 ft | 459 kts | 331° |
| 2026-04-26 13:48 | 17.84806 | 11.30717 | 37853 ft | 458 kts | 330° |
| 2026-04-26 13:49 | 17.90648 | 11.27964 | 37853 ft | 459 kts | 330° |
| 2026-04-26 13:49 | 17.96458 | 11.25150 | 37854 ft | 460 kts | 330° |
| 2026-04-26 13:50 | 18.02279 | 11.22394 | 37852 ft | 461 kts | 330° |
| 2026-04-26 13:50 | 18.08124 | 11.19569 | 37852 ft | 461 kts | 331° |
| 2026-04-26 13:51 | 18.13969 | 11.16788 | 37850 ft | 459 kts | 330° |
| 2026-04-26 13:51 | 18.19733 | 11.14007 | 37853 ft | 459 kts | 330° |
| 2026-04-26 13:52 | 18.25545 | 11.11227 | 37857 ft | 458 kts | 330° |
| 2026-04-26 13:52 | 18.31361 | 11.08429 | 37859 ft | 459 kts | 330° |
| 2026-04-26 13:53 | 18.37174 | 11.05632 | 37861 ft | 459 kts | 330° |
| 2026-04-26 13:53 | 18.42977 | 11.02847 | 37861 ft | 459 kts | 330° |
| 2026-04-26 13:54 | 18.48788 | 11.00039 | 37842 ft | 458 kts | 330° |
| 2026-04-26 13:54 | 18.54539 | 10.97279 | 37858 ft | 456 kts | 330° |
| 2026-04-26 13:55 | 18.62235 | 10.93554 | 37864 ft | 457 kts | 330° |
| 2026-04-26 13:56 | 18.71891 | 10.88887 | 37862 ft | 458 kts | 330° |
| 2026-04-26 13:56 | 18.77685 | 10.86098 | 37862 ft | 458 kts | 330° |
| 2026-04-26 13:57 | 18.83437 | 10.83306 | 37849 ft | 457 kts | 330° |
| 2026-04-26 13:57 | 18.89203 | 10.80520 | 37853 ft | 454 kts | 329° |
| 2026-04-26 13:58 | 18.94961 | 10.77726 | 37857 ft | 455 kts | 330° |
| 2026-04-26 13:58 | 19.00665 | 10.74958 | 37859 ft | 455 kts | 329° |
| 2026-04-26 13:59 | 19.06438 | 10.72163 | 37861 ft | 455 kts | 330° |
| 2026-04-26 13:59 | 19.12162 | 10.69370 | 37868 ft | 455 kts | 329° |
| 2026-04-26 14:00 | 19.23676 | 10.63772 | 37876 ft | 454 kts | 329° |
| 2026-04-26 14:01 | 19.29416 | 10.60990 | 37870 ft | 454 kts | 329° |
| 2026-04-26 14:01 | 19.35144 | 10.58187 | 37869 ft | 454 kts | 329° |
| 2026-04-26 14:02 | 19.40898 | 10.55390 | 37880 ft | 454 kts | 329° |
| 2026-04-26 14:02 | 19.46660 | 10.52574 | 37882 ft | 455 kts | 329° |
| 2026-04-26 14:03 | 19.52375 | 10.49784 | 37864 ft | 456 kts | 329° |
| 2026-04-26 14:03 | 19.58130 | 10.46972 | 37874 ft | 455 kts | 329° |
| 2026-04-26 14:04 | 19.63870 | 10.44159 | 37878 ft | 454 kts | 329° |
| 2026-04-26 14:04 | 19.69583 | 10.41372 | 37885 ft | 455 kts | 329° |
| 2026-04-26 14:05 | 19.75343 | 10.38538 | 37887 ft | 455 kts | 329° |
| 2026-04-26 14:05 | 19.81127 | 10.35716 | 37892 ft | 455 kts | 329° |
| 2026-04-26 14:06 | 19.86832 | 10.32903 | 37875 ft | 454 kts | 329° |
| 2026-04-26 14:06 | 19.92552 | 10.30105 | 37878 ft | 452 kts | 328° |
| 2026-04-26 14:07 | 19.98241 | 10.27301 | 37886 ft | 452 kts | 329° |
| 2026-04-26 14:07 | 20.04012 | 10.24465 | 37892 ft | 452 kts | 328° |
| 2026-04-26 14:08 | 20.09667 | 10.21683 | 37893 ft | 453 kts | 329° |
| 2026-04-26 14:08 | 20.15402 | 10.18851 | 37896 ft | 453 kts | 328° |
| 2026-04-26 14:09 | 20.21123 | 10.16041 | 37881 ft | 450 kts | 328° |
| 2026-04-26 14:09 | 20.26727 | 10.13264 | 37886 ft | 448 kts | 328° |
| 2026-04-26 14:10 | 20.32412 | 10.10467 | 37895 ft | 448 kts | 328° |
| 2026-04-26 14:10 | 20.38067 | 10.07659 | 37895 ft | 449 kts | 328° |
| 2026-04-26 14:11 | 20.46571 | 10.03453 | 37897 ft | 449 kts | 328° |
| 2026-04-26 14:11 | 20.52244 | 10.00656 | 37916 ft | 450 kts | 328° |
| 2026-04-26 14:12 | 20.57888 | 9.97845 | 37879 ft | 447 kts | 328° |
| 2026-04-26 14:12 | 20.63525 | 9.95061 | 37890 ft | 446 kts | 328° |
| 2026-04-26 14:13 | 20.71972 | 9.90864 | 37907 ft | 446 kts | 328° |
| 2026-04-26 14:14 | 20.77600 | 9.88056 | 37916 ft | 446 kts | 328° |
| 2026-04-26 14:14 | 20.83216 | 9.85274 | 37872 ft | 447 kts | 328° |
| 2026-04-26 14:15 | 20.88858 | 9.82451 | 37896 ft | 446 kts | 327° |
| 2026-04-26 14:15 | 20.94495 | 9.79655 | 37901 ft | 445 kts | 327° |
| 2026-04-26 14:16 | 20.99131 | 9.77329 | 37904 ft | 446 kts | 327° |
| 2026-04-26 14:16 | 21.04793 | 9.74516 | 37905 ft | 446 kts | 327° |
| 2026-04-26 14:17 | 21.10416 | 9.71698 | 37904 ft | 446 kts | 328° |
| 2026-04-26 14:17 | 21.16029 | 9.68897 | 37907 ft | 446 kts | 327° |
| 2026-04-26 14:18 | 21.21674 | 9.66072 | 37912 ft | 447 kts | 328° |
| 2026-04-26 14:18 | 21.27270 | 9.63265 | 37913 ft | 447 kts | 327° |
| 2026-04-26 14:19 | 21.32886 | 9.60459 | 37909 ft | 446 kts | 327° |
| 2026-04-26 14:19 | 21.38568 | 9.57595 | 37909 ft | 446 kts | 327° |
| 2026-04-26 14:20 | 21.44146 | 9.54810 | 37912 ft | 445 kts | 327° |
| 2026-04-26 14:20 | 21.49744 | 9.51981 | 37912 ft | 445 kts | 327° |
| 2026-04-26 14:21 | 21.55379 | 9.49162 | 37905 ft | 445 kts | 327° |
| 2026-04-26 14:21 | 21.60943 | 9.46349 | 37908 ft | 444 kts | 327° |
| 2026-04-26 14:22 | 21.66585 | 9.43513 | 37909 ft | 446 kts | 327° |
| 2026-04-26 14:22 | 21.72196 | 9.40683 | 37911 ft | 447 kts | 327° |
| 2026-04-26 14:23 | 21.77804 | 9.37849 | 37916 ft | 447 kts | 327° |
| 2026-04-26 14:23 | 21.83449 | 9.35007 | 37918 ft | 446 kts | 327° |
| 2026-04-26 14:24 | 21.89063 | 9.32156 | 37912 ft | 445 kts | 327° |
| 2026-04-26 14:24 | 21.94693 | 9.29433 | 37889 ft | 449 kts | 332° |
| 2026-04-26 14:25 | 22.00631 | 9.27263 | 37928 ft | 451 kts | 332° |
| 2026-04-26 14:25 | 22.06475 | 9.24967 | 37927 ft | 450 kts | 332° |
| 2026-04-26 14:26 | 22.12457 | 9.22763 | 37926 ft | 450 kts | 332° |
| 2026-04-26 14:26 | 22.18330 | 9.20471 | 37922 ft | 450 kts | 332° |
| 2026-04-26 14:27 | 22.24241 | 9.18271 | 37944 ft | 448 kts | 332° |
| 2026-04-26 14:27 | 22.30074 | 9.16009 | 37911 ft | 449 kts | 332° |
| 2026-04-26 14:28 | 22.35988 | 9.13789 | 37905 ft | 449 kts | 332° |
| 2026-04-26 14:28 | 22.41864 | 9.11519 | 37947 ft | 449 kts | 332° |
| 2026-04-26 14:29 | 22.47787 | 9.09280 | 37900 ft | 449 kts | 332° |
| 2026-04-26 14:29 | 22.53639 | 9.07026 | 37949 ft | 449 kts | 332° |
| 2026-04-26 14:30 | 22.59574 | 9.04768 | 37926 ft | 446 kts | 331° |
| 2026-04-26 14:30 | 22.65408 | 9.02526 | 37928 ft | 447 kts | 332° |
| 2026-04-26 14:31 | 22.71268 | 9.00282 | 37926 ft | 448 kts | 331° |
| 2026-04-26 14:31 | 22.77121 | 8.98040 | 37930 ft | 449 kts | 332° |
| 2026-04-26 14:32 | 22.82997 | 8.95776 | 37932 ft | 449 kts | 331° |
| 2026-04-26 14:32 | 22.88918 | 8.93513 | 37907 ft | 446 kts | 331° |
| 2026-04-26 14:33 | 22.94717 | 8.91270 | 37938 ft | 442 kts | 331° |
| 2026-04-26 14:33 | 23.00513 | 8.89049 | 37945 ft | 443 kts | 331° |
| 2026-04-26 14:34 | 23.06319 | 8.86800 | 37938 ft | 444 kts | 331° |
| 2026-04-26 14:34 | 23.12170 | 8.84554 | 37943 ft | 444 kts | 331° |
| 2026-04-26 14:35 | 23.17961 | 8.82310 | 37947 ft | 445 kts | 331° |
| 2026-04-26 14:35 | 23.23808 | 8.80056 | 37938 ft | 442 kts | 330° |
| 2026-04-26 14:36 | 23.29578 | 8.77824 | 37942 ft | 442 kts | 331° |
| 2026-04-26 14:36 | 23.35381 | 8.75572 | 37937 ft | 442 kts | 331° |
| 2026-04-26 14:37 | 23.41183 | 8.73332 | 37934 ft | 442 kts | 331° |
| 2026-04-26 14:37 | 23.46991 | 8.71069 | 37935 ft | 443 kts | 330° |
| 2026-04-26 14:38 | 23.52790 | 8.68828 | 37927 ft | 445 kts | 330° |
| 2026-04-26 14:38 | 23.58652 | 8.66542 | 37936 ft | 444 kts | 330° |
| 2026-04-26 14:39 | 23.64449 | 8.64293 | 37923 ft | 443 kts | 330° |
| 2026-04-26 14:39 | 23.70197 | 8.62051 | 37925 ft | 443 kts | 330° |
| 2026-04-26 14:40 | 23.76059 | 8.59767 | 37928 ft | 443 kts | 330° |
| 2026-04-26 14:40 | 23.81833 | 8.57518 | 37928 ft | 444 kts | 330° |
| 2026-04-26 14:41 | 23.87657 | 8.55237 | 37931 ft | 444 kts | 330° |
| 2026-04-26 14:41 | 23.93509 | 8.52961 | 37917 ft | 444 kts | 330° |
| 2026-04-26 14:42 | 23.99315 | 8.50677 | 37919 ft | 445 kts | 330° |
| 2026-04-26 14:42 | 24.05102 | 8.48424 | 37920 ft | 445 kts | 330° |
| 2026-04-26 14:43 | 24.10922 | 8.46131 | 37922 ft | 446 kts | 330° |
| 2026-04-26 14:43 | 24.16792 | 8.43838 | 37932 ft | 445 kts | 330° |
| 2026-04-26 14:44 | 24.22597 | 8.41554 | 37891 ft | 444 kts | 330° |
| 2026-04-26 14:44 | 24.28364 | 8.39285 | 37940 ft | 442 kts | 330° |
| 2026-04-26 14:45 | 24.34217 | 8.36988 | 37903 ft | 443 kts | 330° |
| 2026-04-26 14:45 | 24.40031 | 8.34688 | 37895 ft | 444 kts | 330° |
| 2026-04-26 14:46 | 24.45831 | 8.32412 | 37921 ft | 441 kts | 329° |
| 2026-04-26 14:46 | 24.51591 | 8.30131 | 37924 ft | 442 kts | 329° |
| 2026-04-26 14:47 | 24.57369 | 8.27853 | 37933 ft | 442 kts | 329° |
| 2026-04-26 14:47 | 24.63168 | 8.25558 | 37936 ft | 443 kts | 330° |
| 2026-04-26 14:48 | 24.68939 | 8.23274 | 37930 ft | 443 kts | 329° |
| 2026-04-26 14:48 | 24.74760 | 8.20971 | 37933 ft | 444 kts | 330° |
| 2026-04-26 14:49 | 24.80548 | 8.18670 | 37954 ft | 444 kts | 329° |
| 2026-04-26 14:49 | 24.86347 | 8.16377 | 37937 ft | 441 kts | 329° |
| 2026-04-26 14:50 | 24.92101 | 8.14080 | 37953 ft | 440 kts | 329° |
| 2026-04-26 14:50 | 24.97923 | 8.11772 | 37955 ft | 441 kts | 329° |
| 2026-04-26 14:51 | 25.03646 | 8.09488 | 37956 ft | 441 kts | 329° |
| 2026-04-26 14:51 | 25.09427 | 8.07190 | 37961 ft | 441 kts | 329° |
| 2026-04-26 14:52 | 25.15228 | 8.04867 | 37947 ft | 440 kts | 329° |
| 2026-04-26 14:52 | 25.20924 | 8.02601 | 37977 ft | 440 kts | 329° |
| 2026-04-26 14:53 | 25.26729 | 8.00275 | 37938 ft | 440 kts | 329° |
| 2026-04-26 14:53 | 25.32490 | 7.97972 | 37978 ft | 439 kts | 329° |
| 2026-04-26 14:54 | 25.38215 | 7.95678 | 37945 ft | 439 kts | 329° |
| 2026-04-26 14:54 | 25.43976 | 7.93366 | 37972 ft | 437 kts | 329° |
| 2026-04-26 14:55 | 25.49624 | 7.91105 | 37942 ft | 434 kts | 329° |
| 2026-04-26 14:55 | 25.55319 | 7.88808 | 37941 ft | 434 kts | 329° |
| 2026-04-26 14:56 | 25.60942 | 7.86554 | 37944 ft | 435 kts | 329° |
| 2026-04-26 14:56 | 25.66651 | 7.84248 | 37948 ft | 437 kts | 329° |
| 2026-04-26 14:57 | 25.72440 | 7.81924 | 37940 ft | 436 kts | 329° |
| 2026-04-26 14:57 | 25.78069 | 7.79650 | 37919 ft | 428 kts | 329° |
| 2026-04-26 14:58 | 25.83619 | 7.77405 | 37929 ft | 426 kts | 328° |
| 2026-04-26 14:58 | 25.89190 | 7.75157 | 37931 ft | 428 kts | 329° |
| 2026-04-26 14:59 | 25.94808 | 7.72878 | 37922 ft | 428 kts | 328° |
| 2026-04-26 14:59 | 26.00366 | 7.70636 | 37919 ft | 428 kts | 329° |
| 2026-04-26 15:00 | 26.05969 | 7.68389 | 37943 ft | 428 kts | 329° |
| 2026-04-26 15:00 | 26.11541 | 7.66176 | 37915 ft | 424 kts | 328° |
| 2026-04-26 15:01 | 26.17157 | 7.63913 | 37915 ft | 426 kts | 329° |
| 2026-04-26 15:01 | 26.22669 | 7.61716 | 37902 ft | 427 kts | 328° |
| 2026-04-26 15:02 | 26.27358 | 7.59826 | 37901 ft | 428 kts | 329° |
| 2026-04-26 15:02 | 26.33949 | 7.57186 | 37877 ft | 428 kts | 328° |
| 2026-04-26 15:03 | 26.38615 | 7.55310 | 37882 ft | 428 kts | 329° |
| 2026-04-26 15:03 | 26.45112 | 7.52699 | 37863 ft | 425 kts | 328° |
| 2026-04-26 15:04 | 26.49778 | 7.50817 | 37864 ft | 426 kts | 328° |
| 2026-04-26 15:04 | 26.55322 | 7.48587 | 37862 ft | 426 kts | 328° |
| 2026-04-26 15:05 | 26.60924 | 7.46326 | 37860 ft | 427 kts | 328° |
| 2026-04-26 15:05 | 26.66519 | 7.44065 | 37864 ft | 428 kts | 328° |
| 2026-04-26 15:06 | 26.72125 | 7.41805 | 37868 ft | 425 kts | 328° |
| 2026-04-26 15:06 | 26.77646 | 7.39560 | 37856 ft | 425 kts | 328° |
| 2026-04-26 15:07 | 26.85997 | 7.36184 | 37857 ft | 425 kts | 328° |
| 2026-04-26 15:07 | 26.91561 | 7.33923 | 37857 ft | 425 kts | 328° |
| 2026-04-26 15:08 | 26.97115 | 7.31668 | 37856 ft | 424 kts | 327° |
| 2026-04-26 15:08 | 27.02680 | 7.29405 | 37868 ft | 426 kts | 328° |
| 2026-04-26 15:09 | 27.08253 | 7.27135 | 37871 ft | 426 kts | 328° |
| 2026-04-26 15:09 | 27.13803 | 7.24879 | 37871 ft | 426 kts | 328° |
| 2026-04-26 15:10 | 27.18475 | 7.22968 | 37876 ft | 426 kts | 328° |
| 2026-04-26 15:10 | 27.24974 | 7.20323 | 37864 ft | 426 kts | 328° |
| 2026-04-26 15:11 | 27.30501 | 7.18052 | 37874 ft | 426 kts | 328° |
| 2026-04-26 15:11 | 27.36098 | 7.15770 | 37862 ft | 428 kts | 328° |
| 2026-04-26 15:12 | 27.41690 | 7.13474 | 37855 ft | 428 kts | 328° |
| 2026-04-26 15:12 | 27.47290 | 7.11182 | 37859 ft | 428 kts | 328° |
| 2026-04-26 15:13 | 27.52890 | 7.08881 | 37863 ft | 428 kts | 328° |
| 2026-04-26 15:13 | 27.58492 | 7.06579 | 37857 ft | 428 kts | 328° |
| 2026-04-26 15:14 | 27.64070 | 7.04286 | 37854 ft | 428 kts | 328° |
| 2026-04-26 15:14 | 27.69701 | 7.01962 | 37850 ft | 428 kts | 328° |
| 2026-04-26 15:15 | 27.75259 | 6.99676 | 37849 ft | 428 kts | 328° |
| 2026-04-26 15:15 | 27.80859 | 6.97360 | 37841 ft | 428 kts | 328° |
| 2026-04-26 15:16 | 27.86425 | 6.95061 | 37840 ft | 428 kts | 328° |
| 2026-04-26 15:16 | 27.92076 | 6.92722 | 37816 ft | 433 kts | 328° |
| 2026-04-26 15:17 | 27.96767 | 6.90783 | 37829 ft | 432 kts | 328° |
| 2026-04-26 15:17 | 28.03330 | 6.88060 | 37824 ft | 431 kts | 328° |
| 2026-04-26 15:18 | 28.08961 | 6.85721 | 37854 ft | 431 kts | 328° |
| 2026-04-26 15:18 | 28.14838 | 6.83913 | 37808 ft | 456 kts | 343° |
| 2026-04-26 15:19 | 28.21277 | 6.83725 | 37851 ft | 464 kts | 347° |
| 2026-04-26 15:19 | 28.27752 | 6.83517 | 37831 ft | 466 kts | 347° |
| 2026-04-26 15:20 | 28.34242 | 6.83388 | 37828 ft | 465 kts | 347° |
| 2026-04-26 15:20 | 28.40664 | 6.83183 | 37832 ft | 465 kts | 347° |
| 2026-04-26 15:21 | 28.47140 | 6.83043 | 37839 ft | 464 kts | 347° |
| 2026-04-26 15:21 | 28.50371 | 6.82937 | 37994 ft | 465 kts | 347° |
| 2026-04-26 15:21 | 28.53631 | 6.82841 | 38140 ft | 472 kts | 348° |
| 2026-04-26 15:22 | 28.56929 | 6.82773 | 38274 ft | 474 kts | 348° |
| 2026-04-26 15:22 | 28.60236 | 6.82695 | 38413 ft | 475 kts | 347° |
| 2026-04-26 15:22 | 28.63547 | 6.82591 | 38540 ft | 476 kts | 347° |
| 2026-04-26 15:22 | 28.66828 | 6.82499 | 38652 ft | 477 kts | 347° |
| 2026-04-26 15:23 | 28.70156 | 6.82428 | 38767 ft | 478 kts | 348° |
| 2026-04-26 15:23 | 28.73480 | 6.82341 | 38878 ft | 478 kts | 347° |
| 2026-04-26 15:23 | 28.76806 | 6.82238 | 38991 ft | 478 kts | 347° |
| 2026-04-26 15:23 | 28.80142 | 6.82150 | 39135 ft | 481 kts | 348° |
| 2026-04-26 15:24 | 28.83507 | 6.82072 | 39253 ft | 486 kts | 348° |
| 2026-04-26 15:24 | 28.86896 | 6.81980 | 39371 ft | 487 kts | 348° |
| 2026-04-26 15:24 | 28.90293 | 6.81884 | 39493 ft | 487 kts | 348° |
| 2026-04-26 15:24 | 28.93687 | 6.81796 | 39599 ft | 488 kts | 348° |
| 2026-04-26 15:25 | 28.97081 | 6.81710 | 39737 ft | 488 kts | 348° |
| 2026-04-26 15:25 | 28.99334 | 6.81649 | 39817 ft | 489 kts | 348° |
| 2026-04-26 15:25 | 29.07302 | 6.81435 | 39837 ft | 490 kts | 348° |
| 2026-04-26 15:26 | 29.14120 | 6.81253 | 39857 ft | 492 kts | 348° |
| 2026-04-26 15:26 | 29.20994 | 6.81070 | 39853 ft | 492 kts | 348° |
| 2026-04-26 15:27 | 29.27812 | 6.80889 | 39847 ft | 492 kts | 349° |
| 2026-04-26 15:27 | 29.34657 | 6.80703 | 39852 ft | 492 kts | 348° |
| 2026-04-26 15:28 | 29.41523 | 6.80521 | 39851 ft | 494 kts | 349° |
| 2026-04-26 15:28 | 29.48401 | 6.80334 | 39852 ft | 494 kts | 349° |
| 2026-04-26 15:29 | 29.55269 | 6.80155 | 39856 ft | 494 kts | 349° |
| 2026-04-26 15:30 | 29.69000 | 6.79785 | 39860 ft | 496 kts | 349° |
| 2026-04-26 15:30 | 29.75907 | 6.79592 | 39858 ft | 496 kts | 349° |
| 2026-04-26 15:31 | 29.86227 | 6.79312 | 39856 ft | 496 kts | 349° |
| 2026-04-26 15:32 | 29.95466 | 6.79070 | 39883 ft | 498 kts | 350° |
| 2026-04-26 15:32 | 30.03527 | 6.78847 | 39865 ft | 498 kts | 350° |
| 2026-04-26 15:33 | 30.10450 | 6.78659 | 39865 ft | 498 kts | 350° |
| 2026-04-26 15:33 | 30.17403 | 6.78471 | 39875 ft | 498 kts | 350° |
| 2026-04-26 15:34 | 30.24297 | 6.78281 | 39907 ft | 499 kts | 350° |
| 2026-04-26 15:34 | 30.31297 | 6.78095 | 39880 ft | 500 kts | 350° |
| 2026-04-26 15:35 | 30.38204 | 6.77898 | 39879 ft | 499 kts | 350° |
| 2026-04-26 15:35 | 30.45167 | 6.77717 | 39881 ft | 499 kts | 350° |
| 2026-04-26 15:36 | 30.52079 | 6.77518 | 39889 ft | 499 kts | 350° |
| 2026-04-26 15:36 | 30.59024 | 6.77336 | 39891 ft | 499 kts | 350° |
| 2026-04-26 15:37 | 30.65975 | 6.77139 | 39892 ft | 499 kts | 350° |
| 2026-04-26 15:37 | 30.72946 | 6.76950 | 39894 ft | 499 kts | 350° |
| 2026-04-26 15:38 | 30.79859 | 6.76759 | 39918 ft | 500 kts | 351° |
| 2026-04-26 15:38 | 30.86817 | 6.76565 | 39900 ft | 500 kts | 350° |
| 2026-04-26 15:39 | 30.93791 | 6.76377 | 39906 ft | 500 kts | 351° |
| 2026-04-26 15:39 | 30.98405 | 6.76247 | 39908 ft | 500 kts | 350° |
| 2026-04-26 15:40 | 31.07715 | 6.75994 | 39934 ft | 500 kts | 351° |
| 2026-04-26 15:40 | 31.14634 | 6.75789 | 39922 ft | 500 kts | 351° |
| 2026-04-26 15:41 | 31.21589 | 6.75610 | 39920 ft | 500 kts | 351° |
| 2026-04-26 15:41 | 31.28540 | 6.75402 | 39921 ft | 500 kts | 351° |
| 2026-04-26 15:42 | 31.35528 | 6.75220 | 39943 ft | 500 kts | 351° |
| 2026-04-26 15:42 | 31.42444 | 6.75016 | 39920 ft | 500 kts | 351° |
| 2026-04-26 15:43 | 31.49418 | 6.74828 | 39920 ft | 500 kts | 351° |
| 2026-04-26 15:44 | 31.59870 | 6.74542 | 39918 ft | 500 kts | 351° |
| 2026-04-26 15:44 | 31.70307 | 6.74242 | 39923 ft | 500 kts | 352° |
| 2026-04-26 15:45 | 31.80704 | 6.73938 | 39923 ft | 500 kts | 352° |
| 2026-04-26 15:46 | 31.91154 | 6.73645 | 39929 ft | 500 kts | 352° |
| 2026-04-26 15:46 | 31.95763 | 6.73521 | 39910 ft | 500 kts | 352° |
| 2026-04-26 15:47 | 32.08512 | 6.73158 | 39910 ft | 500 kts | 352° |
| 2026-04-26 15:48 | 32.15482 | 6.72964 | 39910 ft | 500 kts | 352° |
| 2026-04-26 15:48 | 32.22431 | 6.72767 | 39911 ft | 499 kts | 352° |
| 2026-04-26 15:49 | 32.28214 | 6.72604 | 39903 ft | 499 kts | 352° |
| 2026-04-26 15:49 | 32.35157 | 6.72404 | 39913 ft | 499 kts | 352° |
| 2026-04-26 15:50 | 32.42107 | 6.72203 | 39916 ft | 499 kts | 352° |
| 2026-04-26 15:50 | 32.49042 | 6.72011 | 39900 ft | 498 kts | 353° |
| 2026-04-26 15:51 | 32.55971 | 6.71804 | 39906 ft | 498 kts | 352° |
| 2026-04-26 15:51 | 32.62902 | 6.71615 | 39914 ft | 498 kts | 353° |
| 2026-04-26 15:52 | 32.69839 | 6.71405 | 39921 ft | 498 kts | 352° |
| 2026-04-26 15:52 | 32.76771 | 6.71217 | 39910 ft | 498 kts | 353° |
| 2026-04-26 15:53 | 32.83653 | 6.71007 | 39921 ft | 498 kts | 353° |
| 2026-04-26 15:53 | 32.90593 | 6.70819 | 39922 ft | 498 kts | 353° |
| 2026-04-26 15:54 | 32.97518 | 6.70607 | 39918 ft | 498 kts | 353° |
| 2026-04-26 15:54 | 33.04443 | 6.70416 | 39922 ft | 498 kts | 353° |
| 2026-04-26 15:55 | 33.11375 | 6.70210 | 39930 ft | 498 kts | 353° |
| 2026-04-26 15:55 | 33.18305 | 6.70010 | 39932 ft | 498 kts | 353° |
| 2026-04-26 15:56 | 33.25239 | 6.69810 | 39937 ft | 498 kts | 353° |
| 2026-04-26 15:56 | 33.32170 | 6.69603 | 39939 ft | 498 kts | 353° |
| 2026-04-26 15:57 | 33.39100 | 6.69410 | 39940 ft | 498 kts | 353° |
| 2026-04-26 15:57 | 33.46032 | 6.69195 | 39943 ft | 498 kts | 353° |
| 2026-04-26 15:58 | 33.52926 | 6.69007 | 39947 ft | 499 kts | 353° |
| 2026-04-26 15:58 | 33.59868 | 6.68790 | 39940 ft | 499 kts | 353° |
| 2026-04-26 15:59 | 33.66822 | 6.68598 | 39932 ft | 499 kts | 353° |
| 2026-04-26 15:59 | 33.73763 | 6.68384 | 39937 ft | 499 kts | 353° |
| 2026-04-26 16:00 | 33.80712 | 6.68186 | 39937 ft | 501 kts | 353° |
| 2026-04-26 16:00 | 33.87685 | 6.67978 | 39930 ft | 501 kts | 353° |
| 2026-04-26 16:01 | 33.94614 | 6.67772 | 39947 ft | 501 kts | 353° |
| 2026-04-26 16:01 | 34.01584 | 6.67570 | 39939 ft | 501 kts | 353° |
| 2026-04-26 16:02 | 34.08554 | 6.67355 | 39929 ft | 501 kts | 353° |
| 2026-04-26 16:02 | 34.15529 | 6.67160 | 39939 ft | 501 kts | 353° |
| 2026-04-26 16:03 | 34.22471 | 6.66939 | 39942 ft | 501 kts | 353° |
| 2026-04-26 16:03 | 34.29449 | 6.66748 | 39945 ft | 501 kts | 353° |
| 2026-04-26 16:04 | 34.36404 | 6.66523 | 39946 ft | 500 kts | 353° |
| 2026-04-26 16:04 | 34.43365 | 6.66332 | 39948 ft | 500 kts | 353° |
| 2026-04-26 16:05 | 34.50325 | 6.66107 | 39959 ft | 500 kts | 353° |
| 2026-04-26 16:05 | 34.57288 | 6.65912 | 39980 ft | 499 kts | 353° |
| 2026-04-26 16:06 | 34.64235 | 6.65694 | 39974 ft | 500 kts | 353° |
| 2026-04-26 16:06 | 34.71184 | 6.65489 | 39979 ft | 499 kts | 353° |
| 2026-04-26 16:07 | 34.78133 | 6.65280 | 40003 ft | 500 kts | 353° |
| 2026-04-26 16:07 | 34.85039 | 6.65072 | 39986 ft | 498 kts | 353° |
| 2026-04-26 16:08 | 34.91971 | 6.64881 | 40007 ft | 498 kts | 353° |
| 2026-04-26 16:08 | 34.98909 | 6.64671 | 40033 ft | 498 kts | 353° |
| 2026-04-26 16:09 | 35.05840 | 6.64480 | 40036 ft | 498 kts | 353° |
| 2026-04-26 16:09 | 35.12772 | 6.64266 | 40047 ft | 499 kts | 353° |
| 2026-04-26 16:10 | 35.19726 | 6.64076 | 40060 ft | 499 kts | 353° |
| 2026-04-26 16:10 | 35.26621 | 6.63863 | 40063 ft | 499 kts | 353° |
| 2026-04-26 16:11 | 35.33565 | 6.63675 | 40085 ft | 500 kts | 353° |
| 2026-04-26 16:11 | 35.40533 | 6.63451 | 40065 ft | 500 kts | 353° |
| 2026-04-26 16:12 | 35.47483 | 6.63269 | 40061 ft | 499 kts | 353° |
| 2026-04-26 16:12 | 35.57912 | 6.62958 | 40082 ft | 499 kts | 353° |
| 2026-04-26 16:13 | 35.64806 | 6.62742 | 40064 ft | 498 kts | 353° |
| 2026-04-26 16:13 | 35.71743 | 6.62553 | 40056 ft | 498 kts | 353° |
| 2026-04-26 16:14 | 35.78685 | 6.62330 | 40061 ft | 498 kts | 353° |
| 2026-04-26 16:15 | 35.89101 | 6.62030 | 40070 ft | 498 kts | 352° |
| 2026-04-26 16:15 | 35.95995 | 6.61830 | 40073 ft | 498 kts | 353° |
| 2026-04-26 16:16 | 36.06396 | 6.61506 | 40097 ft | 498 kts | 353° |
| 2026-04-26 16:16 | 36.13317 | 6.61320 | 40092 ft | 496 kts | 352° |
| 2026-04-26 16:17 | 36.20212 | 6.61099 | 40100 ft | 496 kts | 353° |
| 2026-04-26 16:17 | 36.27092 | 6.60903 | 40102 ft | 495 kts | 352° |
| 2026-04-26 16:18 | 36.37501 | 6.62138 | 40096 ft | 503 kts | 1° |
| 2026-04-26 16:19 | 36.47936 | 6.63646 | 40097 ft | 504 kts | 2° |
| 2026-04-26 16:20 | 36.58316 | 6.65195 | 40112 ft | 503 kts | 1° |
| 2026-04-26 16:20 | 36.68764 | 6.66844 | 40095 ft | 502 kts | 1° |
| 2026-04-26 16:21 | 36.75708 | 6.67888 | 40095 ft | 504 kts | 2° |
| 2026-04-26 16:21 | 36.82663 | 6.68971 | 40110 ft | 502 kts | 1° |
| 2026-04-26 16:22 | 36.89551 | 6.70016 | 40113 ft | 502 kts | 2° |
| 2026-04-26 16:22 | 36.96510 | 6.71099 | 40100 ft | 502 kts | 1° |
| 2026-04-26 16:23 | 37.03453 | 6.72162 | 40104 ft | 503 kts | 2° |
| 2026-04-26 16:23 | 37.10353 | 6.73232 | 40110 ft | 502 kts | 1° |
| 2026-04-26 16:24 | 37.17306 | 6.74308 | 40114 ft | 503 kts | 2° |
| 2026-04-26 16:24 | 37.24254 | 6.75382 | 40115 ft | 502 kts | 1° |
| 2026-04-26 16:25 | 37.31199 | 6.76468 | 40116 ft | 504 kts | 2° |
| 2026-04-26 16:25 | 37.38144 | 6.77539 | 40113 ft | 504 kts | 2° |
| 2026-04-26 16:26 | 37.43921 | 6.78447 | 40111 ft | 504 kts | 2° |
| 2026-04-26 16:26 | 37.52057 | 6.79707 | 40120 ft | 504 kts | 2° |
| 2026-04-26 16:27 | 37.58979 | 6.80813 | 40115 ft | 502 kts | 2° |
| 2026-04-26 16:27 | 37.65911 | 6.81875 | 40116 ft | 502 kts | 2° |
| 2026-04-26 16:28 | 37.72506 | 6.82770 | 40260 ft | 485 kts | 358° |
| 2026-04-26 16:28 | 37.75846 | 6.83003 | 39243 ft | 481 kts | 358° |
| 2026-04-26 16:28 | 37.79240 | 6.83232 | 35861 ft | 496 kts | 359° |
| 2026-04-26 16:29 | 37.82725 | 6.83488 | 35099 ft | 492 kts | 0° |
| 2026-04-26 16:29 | 37.86063 | 6.84030 | 35180 ft | 476 kts | 8° |
| 2026-04-26 16:29 | 37.89221 | 6.85017 | 35393 ft | 460 kts | 12° |
| 2026-04-26 16:29 | 37.92282 | 6.86074 | 35631 ft | 451 kts | 10° |
| 2026-04-26 16:30 | 37.95317 | 6.86843 | 35844 ft | 440 kts | 3° |
| 2026-04-26 16:30 | 37.98354 | 6.87183 | 36039 ft | 440 kts | 358° |
| 2026-04-26 16:30 | 38.01440 | 6.87386 | 36267 ft | 447 kts | 0° |
| 2026-04-26 16:30 | 38.04556 | 6.87842 | 36517 ft | 456 kts | 5° |
| 2026-04-26 16:31 | 38.07705 | 6.88542 | 36793 ft | 462 kts | 6° |
| 2026-04-26 16:31 | 38.10901 | 6.89110 | 37062 ft | 465 kts | 2° |
| 2026-04-26 16:31 | 38.14100 | 6.89459 | 37335 ft | 470 kts | 1° |
| 2026-04-26 16:31 | 38.17375 | 6.89921 | 37617 ft | 476 kts | 4° |
| 2026-04-26 16:32 | 38.20664 | 6.90580 | 37900 ft | 479 kts | 5° |
| 2026-04-26 16:32 | 38.22849 | 6.90989 | 38075 ft | 479 kts | 4° |
| 2026-04-26 16:32 | 38.27282 | 6.91579 | 38434 ft | 479 kts | 1° |
| 2026-04-26 16:32 | 38.30607 | 6.92059 | 38726 ft | 483 kts | 4° |
| 2026-04-26 16:33 | 38.33951 | 6.92688 | 38964 ft | 486 kts | 5° |
| 2026-04-26 16:33 | 38.37311 | 6.93272 | 39195 ft | 487 kts | 2° |
| 2026-04-26 16:33 | 38.40641 | 6.93726 | 39418 ft | 488 kts | 2° |
| 2026-04-26 16:33 | 38.44067 | 6.94233 | 39658 ft | 491 kts | 4° |
| 2026-04-26 16:34 | 38.47412 | 6.94837 | 39891 ft | 492 kts | 4° |
| 2026-04-26 16:34 | 38.50814 | 6.95420 | 40130 ft | 493 kts | 3° |
| 2026-04-26 16:34 | 38.57644 | 6.96435 | 40141 ft | 494 kts | 4° |
| 2026-04-26 16:35 | 38.64480 | 6.97606 | 40143 ft | 495 kts | 3° |
| 2026-04-26 16:35 | 38.71314 | 6.98649 | 40143 ft | 494 kts | 4° |
| 2026-04-26 16:36 | 38.76984 | 6.99621 | 40127 ft | 494 kts | 4° |
| 2026-04-26 16:36 | 38.83803 | 7.00676 | 40123 ft | 494 kts | 4° |
| 2026-04-26 16:37 | 38.90623 | 7.01828 | 40128 ft | 494 kts | 4° |
| 2026-04-26 16:37 | 38.97383 | 7.02889 | 40138 ft | 492 kts | 4° |
| 2026-04-26 16:38 | 39.04198 | 7.03659 | 40136 ft | 490 kts | 0° |
| 2026-04-26 16:38 | 39.11012 | 7.04289 | 40130 ft | 491 kts | 1° |
| 2026-04-26 16:39 | 39.17824 | 7.04834 | 40139 ft | 489 kts | 1° |
| 2026-04-26 16:39 | 39.24593 | 7.05444 | 40141 ft | 490 kts | 2° |
| 2026-04-26 16:40 | 39.31414 | 7.05997 | 40134 ft | 490 kts | 1° |
| 2026-04-26 16:40 | 39.38209 | 7.06611 | 40153 ft | 488 kts | 2° |
| 2026-04-26 16:41 | 39.44985 | 7.07161 | 40138 ft | 487 kts | 1° |
| 2026-04-26 16:41 | 39.51707 | 7.07772 | 40137 ft | 487 kts | 2° |
| 2026-04-26 16:42 | 39.58478 | 7.08324 | 40141 ft | 487 kts | 1° |
| 2026-04-26 16:42 | 39.65230 | 7.08939 | 40146 ft | 486 kts | 2° |
| 2026-04-26 16:43 | 39.71983 | 7.09493 | 40139 ft | 486 kts | 2° |
| 2026-04-26 16:43 | 39.78732 | 7.10108 | 40149 ft | 486 kts | 1° |
| 2026-04-26 16:44 | 39.85467 | 7.10668 | 40129 ft | 483 kts | 2° |
| 2026-04-26 16:44 | 39.92130 | 7.11270 | 40148 ft | 483 kts | 1° |
| 2026-04-26 16:45 | 39.98839 | 7.11838 | 40144 ft | 483 kts | 2° |
| 2026-04-26 16:45 | 40.05530 | 7.12436 | 40148 ft | 482 kts | 1° |
| 2026-04-26 16:46 | 40.12246 | 7.13017 | 40153 ft | 482 kts | 2° |
| 2026-04-26 16:46 | 40.18953 | 7.13607 | 40145 ft | 482 kts | 1° |
| 2026-04-26 16:47 | 40.25606 | 7.14197 | 40157 ft | 482 kts | 2° |
| 2026-04-26 16:47 | 40.32297 | 7.14777 | 40142 ft | 481 kts | 1° |
| 2026-04-26 16:48 | 40.38982 | 7.15382 | 40142 ft | 481 kts | 2° |
| 2026-04-26 16:48 | 40.45658 | 7.15955 | 40149 ft | 481 kts | 1° |
| 2026-04-26 16:49 | 40.52316 | 7.16565 | 40144 ft | 481 kts | 2° |
| 2026-04-26 16:49 | 40.59049 | 7.17142 | 40140 ft | 482 kts | 2° |
| 2026-04-26 16:50 | 40.65719 | 7.17757 | 40152 ft | 481 kts | 1° |
| 2026-04-26 16:50 | 40.72384 | 7.18333 | 40146 ft | 481 kts | 2° |
| 2026-04-26 16:51 | 40.79077 | 7.18946 | 40151 ft | 481 kts | 1° |
| 2026-04-26 16:51 | 40.85768 | 7.19565 | 40144 ft | 482 kts | 5° |
| 2026-04-26 16:52 | 40.89025 | 7.20685 | 40034 ft | 487 kts | 22° |
| 2026-04-26 16:52 | 40.91010 | 7.22078 | 40080 ft | 489 kts | 31° |
| 2026-04-26 16:52 | 40.94463 | 7.25972 | 40115 ft | 493 kts | 43° |
| 2026-04-26 16:52 | 40.96911 | 7.29156 | 40149 ft | 495 kts | 42° |
| 2026-04-26 16:53 | 41.01877 | 7.35448 | 40150 ft | 494 kts | 43° |
| 2026-04-26 16:53 | 41.06794 | 7.41831 | 40151 ft | 494 kts | 42° |
| 2026-04-26 16:54 | 41.11772 | 7.48163 | 40148 ft | 495 kts | 43° |
| 2026-04-26 16:54 | 41.16591 | 7.54432 | 40141 ft | 477 kts | 42° |
| 2026-04-26 16:55 | 41.21284 | 7.60439 | 40165 ft | 460 kts | 44° |
| 2026-04-26 16:55 | 41.25769 | 7.66284 | 40140 ft | 443 kts | 43° |
| 2026-04-26 16:56 | 41.32419 | 7.74906 | 40153 ft | 448 kts | 44° |
| 2026-04-26 16:57 | 41.36908 | 7.80710 | 40148 ft | 450 kts | 44° |
| 2026-04-26 16:57 | 41.44342 | 7.87993 | 40118 ft | 446 kts | 19° |
| 2026-04-26 16:58 | 41.49161 | 7.90504 | 40146 ft | 449 kts | 24° |
| 2026-04-26 16:59 | 41.58727 | 7.95622 | 40139 ft | 439 kts | 21° |
| 2026-04-26 17:00 | 41.69978 | 8.01729 | 40145 ft | 438 kts | 21° |
| 2026-04-26 17:00 | 41.78438 | 8.06384 | 40146 ft | 438 kts | 21° |
| 2026-04-26 17:01 | 41.84101 | 8.09442 | 40149 ft | 439 kts | 22° |
| 2026-04-26 17:01 | 41.89721 | 8.12513 | 40144 ft | 439 kts | 21° |
| 2026-04-26 17:02 | 41.95390 | 8.15593 | 40154 ft | 440 kts | 22° |
| 2026-04-26 17:02 | 42.01073 | 8.18707 | 40144 ft | 440 kts | 21° |
| 2026-04-26 17:03 | 42.06751 | 8.21804 | 40147 ft | 440 kts | 22° |
| 2026-04-26 17:03 | 42.12392 | 8.24909 | 40136 ft | 441 kts | 21° |
| 2026-04-26 17:04 | 42.18104 | 8.28035 | 40136 ft | 443 kts | 21° |
| 2026-04-26 17:04 | 42.23818 | 8.31194 | 40142 ft | 443 kts | 21° |
| 2026-04-26 17:05 | 42.29541 | 8.34337 | 40145 ft | 443 kts | 21° |
| 2026-04-26 17:05 | 42.35205 | 8.37481 | 40135 ft | 443 kts | 21° |
| 2026-04-26 17:06 | 42.40915 | 8.40629 | 40132 ft | 444 kts | 21° |
| 2026-04-26 17:06 | 42.46629 | 8.43809 | 40138 ft | 444 kts | 21° |
| 2026-04-26 17:07 | 42.52350 | 8.46979 | 40137 ft | 444 kts | 21° |
| 2026-04-26 17:07 | 42.58061 | 8.50167 | 40133 ft | 443 kts | 21° |
| 2026-04-26 17:08 | 42.63737 | 8.53327 | 40135 ft | 446 kts | 21° |
| 2026-04-26 17:08 | 42.69588 | 8.56604 | 40132 ft | 461 kts | 21° |
| 2026-04-26 17:09 | 42.74584 | 8.59400 | 40133 ft | 466 kts | 21° |
| 2026-04-26 17:09 | 42.81542 | 8.63307 | 40139 ft | 465 kts | 21° |
| 2026-04-26 17:10 | 42.87524 | 8.66674 | 40143 ft | 465 kts | 21° |
| 2026-04-26 17:10 | 42.93465 | 8.70023 | 40147 ft | 467 kts | 21° |
| 2026-04-26 17:11 | 42.99472 | 8.73415 | 40143 ft | 466 kts | 21° |
| 2026-04-26 17:11 | 43.05397 | 8.76779 | 39345 ft | 457 kts | 22° |
| 2026-04-26 17:12 | 43.11433 | 8.80334 | 36613 ft | 479 kts | 24° |
| 2026-04-26 17:12 | 43.14448 | 8.82281 | 35638 ft | 478 kts | 25° |
| 2026-04-26 17:13 | 43.20386 | 8.85568 | 35776 ft | 458 kts | 17° |
| 2026-04-26 17:13 | 43.23462 | 8.86928 | 35882 ft | 468 kts | 18° |
| 2026-04-26 17:13 | 43.29583 | 8.90539 | 36081 ft | 487 kts | 25° |
| 2026-04-26 17:14 | 43.32689 | 8.92475 | 36159 ft | 491 kts | 21° |
| 2026-04-26 17:14 | 43.39109 | 8.95527 | 36108 ft | 490 kts | 10° |
| 2026-04-26 17:14 | 43.42491 | 8.95840 | 36072 ft | 487 kts | 358° |
| 2026-04-26 17:15 | 43.52688 | 8.95904 | 36146 ft | 489 kts | 358° |
| 2026-04-26 17:16 | 43.59492 | 8.95778 | 36154 ft | 489 kts | 358° |
| 2026-04-26 17:16 | 43.66297 | 8.95706 | 36138 ft | 488 kts | 356° |
| 2026-04-26 17:17 | 43.73043 | 8.95585 | 36144 ft | 488 kts | 359° |
| 2026-04-26 17:17 | 43.79838 | 8.95351 | 36145 ft | 487 kts | 356° |
| 2026-04-26 17:18 | 43.86625 | 8.95174 | 36142 ft | 488 kts | 358° |
| 2026-04-26 17:18 | 43.93421 | 8.94955 | 36141 ft | 488 kts | 356° |
| 2026-04-26 17:19 | 44.03613 | 8.94698 | 36146 ft | 488 kts | 357° |
| 2026-04-26 17:19 | 44.10362 | 8.94433 | 36148 ft | 488 kts | 357° |
| 2026-04-26 17:20 | 44.14902 | 8.94349 | 36145 ft | 487 kts | 357° |
| 2026-04-26 17:20 | 44.23934 | 8.94039 | 36150 ft | 487 kts | 357° |
| 2026-04-26 17:21 | 44.30730 | 8.93871 | 36135 ft | 487 kts | 356° |
| 2026-04-26 17:21 | 44.37466 | 8.93642 | 36138 ft | 487 kts | 357° |
| 2026-04-26 17:22 | 44.44248 | 8.93459 | 36134 ft | 487 kts | 356° |
| 2026-04-26 17:22 | 44.51033 | 8.93239 | 36143 ft | 487 kts | 357° |
| 2026-04-26 17:23 | 44.57814 | 8.93049 | 36135 ft | 487 kts | 356° |
| 2026-04-26 17:23 | 44.64546 | 8.92833 | 36139 ft | 487 kts | 357° |
| 2026-04-26 17:24 | 44.71263 | 8.92638 | 36119 ft | 481 kts | 356° |
| 2026-04-26 17:24 | 44.77975 | 8.92431 | 36095 ft | 481 kts | 356° |
| 2026-04-26 17:25 | 44.83542 | 8.92266 | 36084 ft | 481 kts | 356° |
| 2026-04-26 17:25 | 44.90246 | 8.92054 | 36091 ft | 482 kts | 356° |
| 2026-04-26 17:26 | 44.96942 | 8.91853 | 36100 ft | 481 kts | 355° |
| 2026-04-26 17:26 | 45.03649 | 8.91650 | 36113 ft | 482 kts | 356° |
| 2026-04-26 17:27 | 45.10340 | 8.91437 | 36108 ft | 481 kts | 355° |
| 2026-04-26 17:27 | 45.17039 | 8.91242 | 36101 ft | 481 kts | 355° |
| 2026-04-26 17:28 | 45.23726 | 8.91022 | 36099 ft | 481 kts | 355° |
| 2026-04-26 17:28 | 45.30373 | 8.90832 | 36081 ft | 482 kts | 355° |
| 2026-04-26 17:29 | 45.35998 | 8.90643 | 36074 ft | 482 kts | 355° |
| 2026-04-26 17:29 | 45.43791 | 8.90413 | 36086 ft | 481 kts | 355° |
| 2026-04-26 17:30 | 45.50493 | 8.90194 | 36083 ft | 481 kts | 355° |
| 2026-04-26 17:30 | 45.57186 | 8.89992 | 36078 ft | 481 kts | 355° |
| 2026-04-26 17:31 | 45.63828 | 8.89782 | 36090 ft | 481 kts | 356° |
| 2026-04-26 17:31 | 45.70518 | 8.89571 | 36076 ft | 480 kts | 355° |
| 2026-04-26 17:32 | 45.77203 | 8.89366 | 36082 ft | 481 kts | 356° |
| 2026-04-26 17:32 | 45.83891 | 8.89147 | 36083 ft | 481 kts | 355° |
| 2026-04-26 17:33 | 45.90587 | 8.88944 | 36075 ft | 481 kts | 355° |
| 2026-04-26 17:34 | 46.00596 | 8.88624 | 36076 ft | 480 kts | 356° |
| 2026-04-26 17:34 | 46.07277 | 8.88408 | 36078 ft | 480 kts | 355° |
| 2026-04-26 17:35 | 46.13948 | 8.88202 | 36049 ft | 478 kts | 356° |
| 2026-04-26 17:35 | 46.20592 | 8.87523 | 36035 ft | 478 kts | 350° |
| 2026-04-26 17:36 | 46.27218 | 8.86530 | 36063 ft | 478 kts | 352° |
| 2026-04-26 17:36 | 46.33785 | 8.85554 | 36070 ft | 477 kts | 351° |
| 2026-04-26 17:37 | 46.40381 | 8.84553 | 36086 ft | 476 kts | 352° |
| 2026-04-26 17:37 | 46.46973 | 8.83568 | 36129 ft | 476 kts | 351° |
| 2026-04-26 17:38 | 46.56869 | 8.82088 | 36108 ft | 476 kts | 352° |
| 2026-04-26 17:38 | 46.63459 | 8.81051 | 36011 ft | 476 kts | 352° |
| 2026-04-26 17:39 | 46.66753 | 8.80567 | 35576 ft | 476 kts | 352° |
| 2026-04-26 17:39 | 46.70050 | 8.80085 | 35111 ft | 474 kts | 352° |
| 2026-04-26 17:39 | 46.73266 | 8.79584 | 34667 ft | 469 kts | 351° |
| 2026-04-26 17:39 | 46.76494 | 8.79081 | 34212 ft | 462 kts | 352° |
| 2026-04-26 17:40 | 46.79678 | 8.78604 | 33697 ft | 457 kts | 352° |
| 2026-04-26 17:40 | 46.81770 | 8.78292 | 33360 ft | 454 kts | 352° |
| 2026-04-26 17:40 | 46.85947 | 8.77649 | 32698 ft | 447 kts | 352° |
| 2026-04-26 17:40 | 46.89018 | 8.77176 | 32199 ft | 442 kts | 352° |
| 2026-04-26 17:41 | 46.92066 | 8.76714 | 31730 ft | 438 kts | 352° |
| 2026-04-26 17:41 | 46.95084 | 8.76251 | 31251 ft | 434 kts | 352° |
| 2026-04-26 17:41 | 46.98023 | 8.75425 | 30696 ft | 428 kts | 338° |
| 2026-04-26 17:41 | 47.00564 | 8.73230 | 29990 ft | 424 kts | 319° |
| 2026-04-26 17:42 | 47.02623 | 8.70280 | 29408 ft | 419 kts | 313° |
| 2026-04-26 17:42 | 47.04649 | 8.67202 | 28839 ft | 414 kts | 314° |
| 2026-04-26 17:42 | 47.06752 | 8.64345 | 28285 ft | 410 kts | 318° |
| 2026-04-26 17:42 | 47.08894 | 8.61618 | 27752 ft | 405 kts | 318° |
| 2026-04-26 17:43 | 47.10938 | 8.58811 | 27230 ft | 400 kts | 315° |
| 2026-04-26 17:43 | 47.12918 | 8.55968 | 26678 ft | 396 kts | 316° |
| 2026-04-26 17:43 | 47.14935 | 8.53227 | 26116 ft | 394 kts | 317° |
| 2026-04-26 17:43 | 47.16972 | 8.50536 | 25554 ft | 392 kts | 317° |
| 2026-04-26 17:44 | 47.18926 | 8.47837 | 25014 ft | 390 kts | 315° |
| 2026-04-26 17:44 | 47.20879 | 8.45087 | 24475 ft | 388 kts | 316° |
| 2026-04-26 17:44 | 47.22859 | 8.42392 | 23937 ft | 387 kts | 317° |
| 2026-04-26 17:44 | 47.24837 | 8.39717 | 23344 ft | 385 kts | 316° |
| 2026-04-26 17:45 | 47.26776 | 8.37021 | 22824 ft | 382 kts | 315° |
| 2026-04-26 17:45 | 47.28701 | 8.34340 | 22289 ft | 380 kts | 316° |
| 2026-04-26 17:45 | 47.30631 | 8.31704 | 21777 ft | 377 kts | 316° |
| 2026-04-26 17:45 | 47.32545 | 8.29074 | 21260 ft | 375 kts | 316° |
| 2026-04-26 17:46 | 47.34432 | 8.26442 | 20768 ft | 373 kts | 316° |
| 2026-04-26 17:46 | 47.36322 | 8.23825 | 20277 ft | 371 kts | 316° |
| 2026-04-26 17:46 | 47.38204 | 8.21236 | 19797 ft | 369 kts | 316° |
| 2026-04-26 17:46 | 47.40069 | 8.18643 | 19323 ft | 368 kts | 316° |
| 2026-04-26 17:47 | 47.41926 | 8.16055 | 18849 ft | 366 kts | 316° |
| 2026-04-26 17:47 | 47.43156 | 8.14352 | 18562 ft | 365 kts | 316° |
| 2026-04-26 17:47 | 47.45633 | 8.10916 | 17851 ft | 363 kts | 315° |
| 2026-04-26 17:47 | 47.47464 | 8.08354 | 17328 ft | 362 kts | 315° |
| 2026-04-26 17:48 | 47.49267 | 8.05834 | 16836 ft | 360 kts | 315° |
| 2026-04-26 17:48 | 47.51083 | 8.03284 | 16335 ft | 359 kts | 315° |
| 2026-04-26 17:48 | 47.52890 | 8.00740 | 15847 ft | 358 kts | 315° |
| 2026-04-26 17:48 | 47.54693 | 7.98199 | 15348 ft | 357 kts | 315° |
| 2026-04-26 17:49 | 47.56488 | 7.95668 | 14855 ft | 356 kts | 315° |
| 2026-04-26 17:49 | 47.58277 | 7.93145 | 14392 ft | 354 kts | 315° |
| 2026-04-26 17:49 | 47.60053 | 7.90630 | 13935 ft | 352 kts | 315° |
| 2026-04-26 17:49 | 47.61792 | 7.88070 | 13409 ft | 350 kts | 314° |
| 2026-04-26 17:50 | 47.63493 | 7.85495 | 12883 ft | 349 kts | 313° |
| 2026-04-26 17:50 | 47.65312 | 7.83141 | 12294 ft | 349 kts | 328° |
| 2026-04-26 17:50 | 47.67627 | 7.82042 | 11602 ft | 356 kts | 354° |
| 2026-04-26 17:50 | 47.70076 | 7.82633 | 10934 ft | 363 kts | 20° |
| 2026-04-26 17:51 | 47.72156 | 7.84771 | 10242 ft | 369 kts | 45° |
| 2026-04-26 17:51 | 47.73610 | 7.87854 | 9707 ft | 368 kts | 59° |
| 2026-04-26 17:51 | 47.74814 | 7.91180 | 9166 ft | 364 kts | 62° |
| 2026-04-26 17:51 | 47.75958 | 7.94510 | 8633 ft | 359 kts | 63° |
| 2026-04-26 17:52 | 47.77077 | 7.97802 | 8140 ft | 354 kts | 63° |
| 2026-04-26 17:52 | 47.78171 | 8.01042 | 7767 ft | 345 kts | 63° |
| 2026-04-26 17:52 | 47.79142 | 8.04243 | 7370 ft | 336 kts | 73° |
| 2026-04-26 17:52 | 47.79265 | 8.07652 | 6864 ft | 331 kts | 101° |
| 2026-04-26 17:53 | 47.78276 | 8.10694 | 6326 ft | 329 kts | 129° |
| 2026-04-26 17:53 | 47.76562 | 8.12887 | 5974 ft | 320 kts | 142° |
| 2026-04-26 17:53 | 47.74834 | 8.14797 | 5700 ft | 308 kts | 140° |
| 2026-04-26 17:54 | 47.71987 | 8.19187 | 5203 ft | 282 kts | 128° |
| 2026-04-26 17:54 | 47.70695 | 8.21318 | 4830 ft | 273 kts | 133° |
| 2026-04-26 17:54 | 47.69368 | 8.23261 | 4566 ft | 258 kts | 134° |
| 2026-04-26 17:54 | 47.68180 | 8.25111 | 4553 ft | 239 kts | 130° |
| 2026-04-26 17:55 | 47.67088 | 8.26933 | 4558 ft | 233 kts | 131° |
| 2026-04-26 17:55 | 47.65968 | 8.28660 | 4583 ft | 229 kts | 133° |
| 2026-04-26 17:55 | 47.64883 | 8.30294 | 4554 ft | 217 kts | 131° |
| 2026-04-26 17:55 | 47.63877 | 8.31929 | 4606 ft | 208 kts | 130° |
| 2026-04-26 17:56 | 47.62915 | 8.33461 | 4617 ft | 202 kts | 133° |
| 2026-04-26 17:56 | 47.60988 | 8.36051 | 4450 ft | 181 kts | 134° |
| 2026-04-26 17:57 | 47.59200 | 8.38569 | 4167 ft | 176 kts | 136° |
| 2026-04-26 17:57 | 47.58289 | 8.39768 | 3991 ft | 176 kts | 134° |
| 2026-04-26 17:57 | 47.57413 | 8.41001 | 3743 ft | 172 kts | 133° |
| 2026-04-26 17:57 | 47.56549 | 8.42208 | 3496 ft | 173 kts | 134° |
| 2026-04-26 17:58 | 47.54076 | 8.45581 | 2920 ft | 154 kts | 134° |
| 2026-04-26 17:59 | 47.52528 | 8.47688 | 2548 ft | 148 kts | 134° |
| 2026-04-26 17:59 | 47.51773 | 8.48722 | 2359 ft | 148 kts | 134° |
| 2026-04-26 17:59 | 47.51043 | 8.49725 | 2173 ft | 139 kts | 134° |
| 2026-04-26 17:59 | 47.50355 | 8.50674 | 1988 ft | 130 kts | 134° |
| 2026-04-26 18:00 | 47.49717 | 8.51576 | 1783 ft | 131 kts | 135° |
| 2026-04-26 18:00 | 47.49037 | 8.52482 | 1685 ft | 129 kts | 134° |
| 2026-04-26 18:00 | 47.48383 | 8.53377 | 1529 ft | 131 kts | 134° |
| 2026-04-26 18:00 | 47.47719 | 8.54261 | 1406 ft | 122 kts | 134° |
| 2026-04-26 18:01 | 47.47303 | 8.54846 | 1409 ft | 52 kts | 137° |
| 2026-04-26 18:01 | 47.47113 | 8.55104 | 1405 ft | 31 kts | 137° |
| 2026-04-26 18:01 | 47.46961 | 8.55311 | 1406 ft | 27 kts | 137° |
| 2026-04-26 18:01 | 47.46840 | 8.55476 | 1410 ft | 20 kts | 137° |
| 2026-04-26 18:02 | 47.46760 | 8.55576 | 1409 ft | 13 kts | 145° |
| 2026-04-26 18:02 | 47.46734 | 8.55599 | 1407 ft | 14 kts | 150° |
| 2026-04-26 18:02 | 47.46599 | 8.55677 | 1403 ft | 8 kts | 166° |
| 2026-04-26 18:02 | 47.46539 | 8.55697 | 1408 ft | 10 kts | 167° |
| 2026-04-26 18:03 | 47.46469 | 8.55721 | 1406 ft | 11 kts | 167° |
| 2026-04-26 18:03 | 47.46411 | 8.55742 | 1406 ft | 8 kts | 163° |
| 2026-04-26 18:03 | 47.46368 | 8.55778 | 1409 ft | 6 kts | 139° |
| 2026-04-26 18:03 | 47.46338 | 8.55817 | 1408 ft | 6 kts | 139° |
| 2026-04-26 18:04 | 47.46304 | 8.55861 | 1410 ft | 7 kts | 138° |
| 2026-04-26 18:04 | 47.46261 | 8.55888 | 1410 ft | 3 kts | 178° |
| 2026-04-26 18:04 | 47.46239 | 8.55878 | 1408 ft | 2 kts | 205° |
| 2026-04-26 18:05 | 47.46232 | 8.55832 | 1406 ft | 5 kts | 279° |
| 2026-04-26 18:05 | 47.46238 | 8.55752 | 1409 ft | 9 kts | 276° |
| 2026-04-26 18:05 | 47.46241 | 8.55713 | 1403 ft | 5 kts | 276° |
| 2026-04-26 18:05 | 47.46237 | 8.55693 | 1409 ft | 1 kts | 246° |
| 2026-04-26 18:06 | 47.46232 | 8.55690 | 1407 ft | 2 kts | 217° |
| 2026-04-26 18:06 | 47.46223 | 8.55692 | 1402 ft | 3 kts | 181° |
| 2026-04-26 18:06 | 47.46193 | 8.55689 | 1404 ft | 3 kts | 186° |
| 2026-04-26 18:06 | 47.46175 | 8.55686 | 1400 ft | 1 kts | 186° |
| 2026-04-26 18:07 | 47.46173 | 8.55685 | 1400 ft | 0 kts | 186° |